<?xml version="1.0" encoding="UTF-8" standalone="no" ?>
<gpx xmlns="http://www.topografix.com/GPX/1/1" xmlns:xsi="http://www.w3.org/2001/XMLSchema-instance" xsi:schemaLocation="http://www.topografix.com/GPX/1/1 http://www.topografix.com/GPX/1/1/gpx.xsd" version="1.1" creator="VisuGPX - https://www.visugpx.com">
  <metadata>
    <name>Les vallées de la Lémance</name>
    <desc><![CDATA[Entre vallées et coteau du côté de St-Front et Blanquefort]]></desc>
  </metadata>
  <trk>
    <name><![CDATA[28-DEC-14 11:35:39]]></name>
    <trkseg>
      <trkpt lat="44.57567" lon="0.97248">
        <ele>105.88</ele>
        <time>2014-12-28T08:00:14Z</time>
      </trkpt>
      <trkpt lat="44.57566" lon="0.97252">
        <ele>105.88</ele>
        <time>2014-12-28T08:00:30Z</time>
      </trkpt>
      <trkpt lat="44.57563" lon="0.97253">
        <ele>104.44</ele>
        <time>2014-12-28T08:00:45Z</time>
      </trkpt>
      <trkpt lat="44.57563" lon="0.97253">
        <ele>104.44</ele>
        <time>2014-12-28T08:00:47Z</time>
      </trkpt>
      <trkpt lat="44.57551" lon="0.97264">
        <ele>104.44</ele>
        <time>2014-12-28T08:00:57Z</time>
      </trkpt>
      <trkpt lat="44.57549" lon="0.97281">
        <ele>104.44</ele>
        <time>2014-12-28T08:01:04Z</time>
      </trkpt>
      <trkpt lat="44.57561" lon="0.97286">
        <ele>104.44</ele>
        <time>2014-12-28T08:01:09Z</time>
      </trkpt>
      <trkpt lat="44.57619" lon="0.973">
        <ele>103.96</ele>
        <time>2014-12-28T08:01:25Z</time>
      </trkpt>
      <trkpt lat="44.57674" lon="0.97298">
        <ele>106.84</ele>
        <time>2014-12-28T08:01:40Z</time>
      </trkpt>
      <trkpt lat="44.57711" lon="0.97282">
        <ele>108.77</ele>
        <time>2014-12-28T08:01:55Z</time>
      </trkpt>
      <trkpt lat="44.57741" lon="0.97278">
        <ele>110.69</ele>
        <time>2014-12-28T08:02:07Z</time>
      </trkpt>
      <trkpt lat="44.57786" lon="0.97288">
        <ele>114.53</ele>
        <time>2014-12-28T08:02:22Z</time>
      </trkpt>
      <trkpt lat="44.57843" lon="0.97299">
        <ele>117.9</ele>
        <time>2014-12-28T08:02:41Z</time>
      </trkpt>
      <trkpt lat="44.57891" lon="0.9731">
        <ele>118.86</ele>
        <time>2014-12-28T08:02:57Z</time>
      </trkpt>
      <trkpt lat="44.57928" lon="0.97316">
        <ele>118.38</ele>
        <time>2014-12-28T08:03:10Z</time>
      </trkpt>
      <trkpt lat="44.57981" lon="0.97317">
        <ele>117.9</ele>
        <time>2014-12-28T08:03:27Z</time>
      </trkpt>
      <trkpt lat="44.58017" lon="0.97312">
        <ele>118.86</ele>
        <time>2014-12-28T08:03:41Z</time>
      </trkpt>
      <trkpt lat="44.58017" lon="0.97311">
        <ele>116.94</ele>
        <time>2014-12-28T08:03:49Z</time>
      </trkpt>
      <trkpt lat="44.58003" lon="0.9731">
        <ele>117.9</ele>
        <time>2014-12-28T08:04:00Z</time>
      </trkpt>
      <trkpt lat="44.58004" lon="0.97314">
        <ele>118.38</ele>
        <time>2014-12-28T08:04:17Z</time>
      </trkpt>
      <trkpt lat="44.58006" lon="0.97315">
        <ele>118.86</ele>
        <time>2014-12-28T08:04:22Z</time>
      </trkpt>
      <trkpt lat="44.58037" lon="0.97307">
        <ele>117.9</ele>
        <time>2014-12-28T08:04:36Z</time>
      </trkpt>
      <trkpt lat="44.58101" lon="0.97295">
        <ele>115.01</ele>
        <time>2014-12-28T08:04:52Z</time>
      </trkpt>
      <trkpt lat="44.58127" lon="0.9729">
        <ele>114.05</ele>
        <time>2014-12-28T08:04:58Z</time>
      </trkpt>
      <trkpt lat="44.58153" lon="0.97283">
        <ele>113.09</ele>
        <time>2014-12-28T08:05:04Z</time>
      </trkpt>
      <trkpt lat="44.58226" lon="0.97265">
        <ele>111.17</ele>
        <time>2014-12-28T08:05:20Z</time>
      </trkpt>
      <trkpt lat="44.58256" lon="0.97265">
        <ele>110.21</ele>
        <time>2014-12-28T08:05:26Z</time>
      </trkpt>
      <trkpt lat="44.58291" lon="0.97262">
        <ele>109.73</ele>
        <time>2014-12-28T08:05:33Z</time>
      </trkpt>
      <trkpt lat="44.58389" lon="0.97257">
        <ele>109.25</ele>
        <time>2014-12-28T08:05:53Z</time>
      </trkpt>
      <trkpt lat="44.58489" lon="0.9723">
        <ele>109.25</ele>
        <time>2014-12-28T08:06:13Z</time>
      </trkpt>
      <trkpt lat="44.58575" lon="0.97186">
        <ele>110.21</ele>
        <time>2014-12-28T08:06:31Z</time>
      </trkpt>
      <trkpt lat="44.58605" lon="0.97173">
        <ele>110.21</ele>
        <time>2014-12-28T08:06:37Z</time>
      </trkpt>
      <trkpt lat="44.58699" lon="0.97153">
        <ele>112.61</ele>
        <time>2014-12-28T08:06:57Z</time>
      </trkpt>
      <trkpt lat="44.58732" lon="0.97146">
        <ele>113.09</ele>
        <time>2014-12-28T08:07:05Z</time>
      </trkpt>
      <trkpt lat="44.58737" lon="0.97174">
        <ele>115.01</ele>
        <time>2014-12-28T08:07:15Z</time>
      </trkpt>
      <trkpt lat="44.58729" lon="0.97205">
        <ele>117.9</ele>
        <time>2014-12-28T08:07:28Z</time>
      </trkpt>
      <trkpt lat="44.58707" lon="0.97223">
        <ele>124.63</ele>
        <time>2014-12-28T08:07:43Z</time>
      </trkpt>
      <trkpt lat="44.58704" lon="0.97223">
        <ele>125.59</ele>
        <time>2014-12-28T08:07:45Z</time>
      </trkpt>
      <trkpt lat="44.58695" lon="0.97223">
        <ele>127.03</ele>
        <time>2014-12-28T08:07:52Z</time>
      </trkpt>
      <trkpt lat="44.58677" lon="0.97245">
        <ele>129.92</ele>
        <time>2014-12-28T08:08:07Z</time>
      </trkpt>
      <trkpt lat="44.58676" lon="0.97247">
        <ele>130.4</ele>
        <time>2014-12-28T08:08:08Z</time>
      </trkpt>
      <trkpt lat="44.58674" lon="0.97252">
        <ele>129.92</ele>
        <time>2014-12-28T08:08:23Z</time>
      </trkpt>
      <trkpt lat="44.58674" lon="0.97252">
        <ele>128.47</ele>
        <time>2014-12-28T08:08:52Z</time>
      </trkpt>
      <trkpt lat="44.58673" lon="0.97249">
        <ele>130.88</ele>
        <time>2014-12-28T08:09:28Z</time>
      </trkpt>
      <trkpt lat="44.58672" lon="0.97249">
        <ele>131.84</ele>
        <time>2014-12-28T08:09:57Z</time>
      </trkpt>
      <trkpt lat="44.58674" lon="0.9725">
        <ele>132.8</ele>
        <time>2014-12-28T08:10:38Z</time>
      </trkpt>
      <trkpt lat="44.58672" lon="0.97246">
        <ele>133.28</ele>
        <time>2014-12-28T08:11:10Z</time>
      </trkpt>
      <trkpt lat="44.58669" lon="0.97246">
        <ele>129.43</ele>
        <time>2014-12-28T08:11:53Z</time>
      </trkpt>
      <trkpt lat="44.58672" lon="0.97248">
        <ele>126.55</ele>
        <time>2014-12-28T08:12:24Z</time>
      </trkpt>
      <trkpt lat="44.58675" lon="0.97249">
        <ele>128.95</ele>
        <time>2014-12-28T08:13:02Z</time>
      </trkpt>
      <trkpt lat="44.58675" lon="0.97252">
        <ele>131.36</ele>
        <time>2014-12-28T08:13:20Z</time>
      </trkpt>
      <trkpt lat="44.58674" lon="0.97256">
        <ele>131.84</ele>
        <time>2014-12-28T08:13:23Z</time>
      </trkpt>
      <trkpt lat="44.5867" lon="0.97267">
        <ele>132.32</ele>
        <time>2014-12-28T08:13:28Z</time>
      </trkpt>
      <trkpt lat="44.58653" lon="0.97305">
        <ele>136.16</ele>
        <time>2014-12-28T08:13:45Z</time>
      </trkpt>
      <trkpt lat="44.58633" lon="0.97334">
        <ele>140.49</ele>
        <time>2014-12-28T08:14:01Z</time>
      </trkpt>
      <trkpt lat="44.58616" lon="0.97354">
        <ele>145.3</ele>
        <time>2014-12-28T08:14:15Z</time>
      </trkpt>
      <trkpt lat="44.58605" lon="0.97377">
        <ele>146.74</ele>
        <time>2014-12-28T08:14:28Z</time>
      </trkpt>
      <trkpt lat="44.58589" lon="0.97406">
        <ele>147.22</ele>
        <time>2014-12-28T08:14:44Z</time>
      </trkpt>
      <trkpt lat="44.58577" lon="0.97436">
        <ele>151.54</ele>
        <time>2014-12-28T08:14:58Z</time>
      </trkpt>
      <trkpt lat="44.58562" lon="0.97462">
        <ele>156.83</ele>
        <time>2014-12-28T08:15:11Z</time>
      </trkpt>
      <trkpt lat="44.5855" lon="0.97486">
        <ele>159.24</ele>
        <time>2014-12-28T08:15:24Z</time>
      </trkpt>
      <trkpt lat="44.58531" lon="0.97522">
        <ele>162.12</ele>
        <time>2014-12-28T08:15:42Z</time>
      </trkpt>
      <trkpt lat="44.58512" lon="0.97554">
        <ele>164.04</ele>
        <time>2014-12-28T08:15:59Z</time>
      </trkpt>
      <trkpt lat="44.58513" lon="0.97581">
        <ele>165.96</ele>
        <time>2014-12-28T08:16:11Z</time>
      </trkpt>
      <trkpt lat="44.5851" lon="0.97617">
        <ele>168.85</ele>
        <time>2014-12-28T08:16:26Z</time>
      </trkpt>
      <trkpt lat="44.58507" lon="0.97654">
        <ele>171.73</ele>
        <time>2014-12-28T08:16:41Z</time>
      </trkpt>
      <trkpt lat="44.58502" lon="0.9769">
        <ele>176.54</ele>
        <time>2014-12-28T08:16:57Z</time>
      </trkpt>
      <trkpt lat="44.58499" lon="0.97723">
        <ele>179.42</ele>
        <time>2014-12-28T08:17:11Z</time>
      </trkpt>
      <trkpt lat="44.58496" lon="0.97754">
        <ele>181.35</ele>
        <time>2014-12-28T08:17:25Z</time>
      </trkpt>
      <trkpt lat="44.58494" lon="0.97784">
        <ele>184.71</ele>
        <time>2014-12-28T08:17:38Z</time>
      </trkpt>
      <trkpt lat="44.5849" lon="0.97815">
        <ele>186.15</ele>
        <time>2014-12-28T08:17:50Z</time>
      </trkpt>
      <trkpt lat="44.58492" lon="0.97821">
        <ele>185.67</ele>
        <time>2014-12-28T08:18:02Z</time>
      </trkpt>
      <trkpt lat="44.58492" lon="0.97821">
        <ele>184.71</ele>
        <time>2014-12-28T08:18:24Z</time>
      </trkpt>
      <trkpt lat="44.58497" lon="0.9784">
        <ele>183.75</ele>
        <time>2014-12-28T08:18:41Z</time>
      </trkpt>
      <trkpt lat="44.58504" lon="0.97886">
        <ele>181.35</ele>
        <time>2014-12-28T08:18:53Z</time>
      </trkpt>
      <trkpt lat="44.58506" lon="0.97917">
        <ele>180.38</ele>
        <time>2014-12-28T08:19:00Z</time>
      </trkpt>
      <trkpt lat="44.58517" lon="0.97931">
        <ele>179.9</ele>
        <time>2014-12-28T08:19:05Z</time>
      </trkpt>
      <trkpt lat="44.58574" lon="0.97963">
        <ele>181.83</ele>
        <time>2014-12-28T08:19:22Z</time>
      </trkpt>
      <trkpt lat="44.58612" lon="0.97989">
        <ele>184.71</ele>
        <time>2014-12-28T08:19:36Z</time>
      </trkpt>
      <trkpt lat="44.58633" lon="0.98024">
        <ele>186.63</ele>
        <time>2014-12-28T08:19:47Z</time>
      </trkpt>
      <trkpt lat="44.58654" lon="0.98077">
        <ele>190.96</ele>
        <time>2014-12-28T08:20:00Z</time>
      </trkpt>
      <trkpt lat="44.58673" lon="0.98153">
        <ele>189.52</ele>
        <time>2014-12-28T08:20:15Z</time>
      </trkpt>
      <trkpt lat="44.5868" lon="0.98169">
        <ele>188.56</ele>
        <time>2014-12-28T08:20:18Z</time>
      </trkpt>
      <trkpt lat="44.58702" lon="0.98196">
        <ele>187.59</ele>
        <time>2014-12-28T08:20:24Z</time>
      </trkpt>
      <trkpt lat="44.58716" lon="0.98204">
        <ele>187.11</ele>
        <time>2014-12-28T08:20:27Z</time>
      </trkpt>
      <trkpt lat="44.58742" lon="0.98231">
        <ele>186.63</ele>
        <time>2014-12-28T08:20:33Z</time>
      </trkpt>
      <trkpt lat="44.58799" lon="0.98254">
        <ele>186.15</ele>
        <time>2014-12-28T08:20:44Z</time>
      </trkpt>
      <trkpt lat="44.58821" lon="0.98264">
        <ele>186.63</ele>
        <time>2014-12-28T08:20:49Z</time>
      </trkpt>
      <trkpt lat="44.58831" lon="0.98276">
        <ele>187.59</ele>
        <time>2014-12-28T08:20:52Z</time>
      </trkpt>
      <trkpt lat="44.58847" lon="0.98291">
        <ele>185.67</ele>
        <time>2014-12-28T08:20:56Z</time>
      </trkpt>
      <trkpt lat="44.58871" lon="0.98302">
        <ele>184.23</ele>
        <time>2014-12-28T08:21:01Z</time>
      </trkpt>
      <trkpt lat="44.58884" lon="0.98315">
        <ele>184.23</ele>
        <time>2014-12-28T08:21:05Z</time>
      </trkpt>
      <trkpt lat="44.5889" lon="0.98327">
        <ele>183.75</ele>
        <time>2014-12-28T08:21:07Z</time>
      </trkpt>
      <trkpt lat="44.58889" lon="0.98356">
        <ele>182.31</ele>
        <time>2014-12-28T08:21:13Z</time>
      </trkpt>
      <trkpt lat="44.58854" lon="0.9839">
        <ele>180.38</ele>
        <time>2014-12-28T08:21:25Z</time>
      </trkpt>
      <trkpt lat="44.58839" lon="0.98415">
        <ele>183.27</ele>
        <time>2014-12-28T08:21:34Z</time>
      </trkpt>
      <trkpt lat="44.58817" lon="0.98446">
        <ele>182.79</ele>
        <time>2014-12-28T08:21:47Z</time>
      </trkpt>
      <trkpt lat="44.58798" lon="0.98484">
        <ele>185.19</ele>
        <time>2014-12-28T08:22:01Z</time>
      </trkpt>
      <trkpt lat="44.58794" lon="0.98504">
        <ele>188.08</ele>
        <time>2014-12-28T08:22:07Z</time>
      </trkpt>
      <trkpt lat="44.5879" lon="0.98552">
        <ele>196.25</ele>
        <time>2014-12-28T08:22:22Z</time>
      </trkpt>
      <trkpt lat="44.58785" lon="0.98584">
        <ele>200.09</ele>
        <time>2014-12-28T08:22:34Z</time>
      </trkpt>
      <trkpt lat="44.5877" lon="0.98648">
        <ele>195.28</ele>
        <time>2014-12-28T08:22:43Z</time>
      </trkpt>
      <trkpt lat="44.58747" lon="0.98693">
        <ele>192.4</ele>
        <time>2014-12-28T08:22:52Z</time>
      </trkpt>
      <trkpt lat="44.58713" lon="0.98714">
        <ele>192.4</ele>
        <time>2014-12-28T08:23:05Z</time>
      </trkpt>
      <trkpt lat="44.58682" lon="0.98754">
        <ele>194.8</ele>
        <time>2014-12-28T08:23:23Z</time>
      </trkpt>
      <trkpt lat="44.58662" lon="0.98784">
        <ele>194.8</ele>
        <time>2014-12-28T08:23:34Z</time>
      </trkpt>
      <trkpt lat="44.58647" lon="0.98818">
        <ele>194.8</ele>
        <time>2014-12-28T08:23:47Z</time>
      </trkpt>
      <trkpt lat="44.58646" lon="0.98826">
        <ele>194.8</ele>
        <time>2014-12-28T08:23:50Z</time>
      </trkpt>
      <trkpt lat="44.58649" lon="0.98834">
        <ele>194.8</ele>
        <time>2014-12-28T08:23:55Z</time>
      </trkpt>
      <trkpt lat="44.58663" lon="0.98864">
        <ele>198.17</ele>
        <time>2014-12-28T08:24:10Z</time>
      </trkpt>
      <trkpt lat="44.58679" lon="0.98891">
        <ele>198.17</ele>
        <time>2014-12-28T08:24:22Z</time>
      </trkpt>
      <trkpt lat="44.587" lon="0.98914">
        <ele>202.49</ele>
        <time>2014-12-28T08:24:36Z</time>
      </trkpt>
      <trkpt lat="44.58711" lon="0.98925">
        <ele>207.78</ele>
        <time>2014-12-28T08:24:48Z</time>
      </trkpt>
      <trkpt lat="44.5871" lon="0.98925">
        <ele>209.22</ele>
        <time>2014-12-28T08:25:03Z</time>
      </trkpt>
      <trkpt lat="44.58709" lon="0.98923">
        <ele>207.3</ele>
        <time>2014-12-28T08:25:12Z</time>
      </trkpt>
      <trkpt lat="44.587" lon="0.98914">
        <ele>205.38</ele>
        <time>2014-12-28T08:25:18Z</time>
      </trkpt>
      <trkpt lat="44.58697" lon="0.98915">
        <ele>204.42</ele>
        <time>2014-12-28T08:25:21Z</time>
      </trkpt>
      <trkpt lat="44.58677" lon="0.98933">
        <ele>199.61</ele>
        <time>2014-12-28T08:25:29Z</time>
      </trkpt>
      <trkpt lat="44.5867" lon="0.98941">
        <ele>197.21</ele>
        <time>2014-12-28T08:25:31Z</time>
      </trkpt>
      <trkpt lat="44.58661" lon="0.98952">
        <ele>194.32</ele>
        <time>2014-12-28T08:25:34Z</time>
      </trkpt>
      <trkpt lat="44.5863" lon="0.98971">
        <ele>185.19</ele>
        <time>2014-12-28T08:25:42Z</time>
      </trkpt>
      <trkpt lat="44.58618" lon="0.98972">
        <ele>183.27</ele>
        <time>2014-12-28T08:25:44Z</time>
      </trkpt>
      <trkpt lat="44.58599" lon="0.98981">
        <ele>178.94</ele>
        <time>2014-12-28T08:25:48Z</time>
      </trkpt>
      <trkpt lat="44.58561" lon="0.98979">
        <ele>176.54</ele>
        <time>2014-12-28T08:25:59Z</time>
      </trkpt>
      <trkpt lat="44.58541" lon="0.98969">
        <ele>175.1</ele>
        <time>2014-12-28T08:26:11Z</time>
      </trkpt>
      <trkpt lat="44.58539" lon="0.9897">
        <ele>175.58</ele>
        <time>2014-12-28T08:26:33Z</time>
      </trkpt>
      <trkpt lat="44.58517" lon="0.98964">
        <ele>173.17</ele>
        <time>2014-12-28T08:26:40Z</time>
      </trkpt>
      <trkpt lat="44.58498" lon="0.98941">
        <ele>169.81</ele>
        <time>2014-12-28T08:26:47Z</time>
      </trkpt>
      <trkpt lat="44.58474" lon="0.98955">
        <ele>169.33</ele>
        <time>2014-12-28T08:26:56Z</time>
      </trkpt>
      <trkpt lat="44.5847" lon="0.98964">
        <ele>169.81</ele>
        <time>2014-12-28T08:27:01Z</time>
      </trkpt>
      <trkpt lat="44.58473" lon="0.98988">
        <ele>168.37</ele>
        <time>2014-12-28T08:27:06Z</time>
      </trkpt>
      <trkpt lat="44.58485" lon="0.99019">
        <ele>164.52</ele>
        <time>2014-12-28T08:27:10Z</time>
      </trkpt>
      <trkpt lat="44.58506" lon="0.99049">
        <ele>160.2</ele>
        <time>2014-12-28T08:27:14Z</time>
      </trkpt>
      <trkpt lat="44.58564" lon="0.99093">
        <ele>148.66</ele>
        <time>2014-12-28T08:27:23Z</time>
      </trkpt>
      <trkpt lat="44.58589" lon="0.9915">
        <ele>140.49</ele>
        <time>2014-12-28T08:27:31Z</time>
      </trkpt>
      <trkpt lat="44.58577" lon="0.99172">
        <ele>137.61</ele>
        <time>2014-12-28T08:27:35Z</time>
      </trkpt>
      <trkpt lat="44.58533" lon="0.99209">
        <ele>133.76</ele>
        <time>2014-12-28T08:27:44Z</time>
      </trkpt>
      <trkpt lat="44.58485" lon="0.99226">
        <ele>132.32</ele>
        <time>2014-12-28T08:27:57Z</time>
      </trkpt>
      <trkpt lat="44.58483" lon="0.99227">
        <ele>131.36</ele>
        <time>2014-12-28T08:28:00Z</time>
      </trkpt>
      <trkpt lat="44.58467" lon="0.99233">
        <ele>130.88</ele>
        <time>2014-12-28T08:28:12Z</time>
      </trkpt>
      <trkpt lat="44.58424" lon="0.99244">
        <ele>132.8</ele>
        <time>2014-12-28T08:28:26Z</time>
      </trkpt>
      <trkpt lat="44.58373" lon="0.99253">
        <ele>132.8</ele>
        <time>2014-12-28T08:28:39Z</time>
      </trkpt>
      <trkpt lat="44.58321" lon="0.99284">
        <ele>130.88</ele>
        <time>2014-12-28T08:28:52Z</time>
      </trkpt>
      <trkpt lat="44.58282" lon="0.99305">
        <ele>128.95</ele>
        <time>2014-12-28T08:29:02Z</time>
      </trkpt>
      <trkpt lat="44.58233" lon="0.99306">
        <ele>123.19</ele>
        <time>2014-12-28T08:29:12Z</time>
      </trkpt>
      <trkpt lat="44.58206" lon="0.99318">
        <ele>118.38</ele>
        <time>2014-12-28T08:29:18Z</time>
      </trkpt>
      <trkpt lat="44.58176" lon="0.99338">
        <ele>113.09</ele>
        <time>2014-12-28T08:29:29Z</time>
      </trkpt>
      <trkpt lat="44.58174" lon="0.99337">
        <ele>111.17</ele>
        <time>2014-12-28T08:29:45Z</time>
      </trkpt>
      <trkpt lat="44.58174" lon="0.99352">
        <ele>110.69</ele>
        <time>2014-12-28T08:29:50Z</time>
      </trkpt>
      <trkpt lat="44.5818" lon="0.9937">
        <ele>110.69</ele>
        <time>2014-12-28T08:29:54Z</time>
      </trkpt>
      <trkpt lat="44.58217" lon="0.99481">
        <ele>111.65</ele>
        <time>2014-12-28T08:30:12Z</time>
      </trkpt>
      <trkpt lat="44.58274" lon="0.99644">
        <ele>111.65</ele>
        <time>2014-12-28T08:30:33Z</time>
      </trkpt>
      <trkpt lat="44.58319" lon="0.99778">
        <ele>112.61</ele>
        <time>2014-12-28T08:30:50Z</time>
      </trkpt>
      <trkpt lat="44.58333" lon="0.99815">
        <ele>113.09</ele>
        <time>2014-12-28T08:30:55Z</time>
      </trkpt>
      <trkpt lat="44.58372" lon="0.99935">
        <ele>115.98</ele>
        <time>2014-12-28T08:31:13Z</time>
      </trkpt>
      <trkpt lat="44.58419" lon="1.0007">
        <ele>117.42</ele>
        <time>2014-12-28T08:31:33Z</time>
      </trkpt>
      <trkpt lat="44.58458" lon="1.00187">
        <ele>117.42</ele>
        <time>2014-12-28T08:31:50Z</time>
      </trkpt>
      <trkpt lat="44.58497" lon="1.00311">
        <ele>118.86</ele>
        <time>2014-12-28T08:32:07Z</time>
      </trkpt>
      <trkpt lat="44.58528" lon="1.00429">
        <ele>120.78</ele>
        <time>2014-12-28T08:32:23Z</time>
      </trkpt>
      <trkpt lat="44.58563" lon="1.00549">
        <ele>123.67</ele>
        <time>2014-12-28T08:32:42Z</time>
      </trkpt>
      <trkpt lat="44.58563" lon="1.00554">
        <ele>123.67</ele>
        <time>2014-12-28T08:32:43Z</time>
      </trkpt>
      <trkpt lat="44.58537" lon="1.00577">
        <ele>124.15</ele>
        <time>2014-12-28T08:32:53Z</time>
      </trkpt>
      <trkpt lat="44.58537" lon="1.00599">
        <ele>122.71</ele>
        <time>2014-12-28T08:32:58Z</time>
      </trkpt>
      <trkpt lat="44.58571" lon="1.00672">
        <ele>120.3</ele>
        <time>2014-12-28T08:33:11Z</time>
      </trkpt>
      <trkpt lat="44.58616" lon="1.00773">
        <ele>120.3</ele>
        <time>2014-12-28T08:33:27Z</time>
      </trkpt>
      <trkpt lat="44.58684" lon="1.00873">
        <ele>118.38</ele>
        <time>2014-12-28T08:33:43Z</time>
      </trkpt>
      <trkpt lat="44.58777" lon="1.00986">
        <ele>116.94</ele>
        <time>2014-12-28T08:34:01Z</time>
      </trkpt>
      <trkpt lat="44.58859" lon="1.01078">
        <ele>116.94</ele>
        <time>2014-12-28T08:34:17Z</time>
      </trkpt>
      <trkpt lat="44.58894" lon="1.01124">
        <ele>117.9</ele>
        <time>2014-12-28T08:34:25Z</time>
      </trkpt>
      <trkpt lat="44.58914" lon="1.01161">
        <ele>117.9</ele>
        <time>2014-12-28T08:34:31Z</time>
      </trkpt>
      <trkpt lat="44.58965" lon="1.01219">
        <ele>118.38</ele>
        <time>2014-12-28T08:34:44Z</time>
      </trkpt>
      <trkpt lat="44.58993" lon="1.01251">
        <ele>117.9</ele>
        <time>2014-12-28T08:34:51Z</time>
      </trkpt>
      <trkpt lat="44.59047" lon="1.01299">
        <ele>120.3</ele>
        <time>2014-12-28T08:35:05Z</time>
      </trkpt>
      <trkpt lat="44.5907" lon="1.01341">
        <ele>120.78</ele>
        <time>2014-12-28T08:35:16Z</time>
      </trkpt>
      <trkpt lat="44.59089" lon="1.01431">
        <ele>118.38</ele>
        <time>2014-12-28T08:35:32Z</time>
      </trkpt>
      <trkpt lat="44.59094" lon="1.01442">
        <ele>118.86</ele>
        <time>2014-12-28T08:35:34Z</time>
      </trkpt>
      <trkpt lat="44.59115" lon="1.01512">
        <ele>120.3</ele>
        <time>2014-12-28T08:35:48Z</time>
      </trkpt>
      <trkpt lat="44.5913" lon="1.01573">
        <ele>119.82</ele>
        <time>2014-12-28T08:36:01Z</time>
      </trkpt>
      <trkpt lat="44.59128" lon="1.01632">
        <ele>120.3</ele>
        <time>2014-12-28T08:36:13Z</time>
      </trkpt>
      <trkpt lat="44.59163" lon="1.01694">
        <ele>121.74</ele>
        <time>2014-12-28T08:36:28Z</time>
      </trkpt>
      <trkpt lat="44.59158" lon="1.01708">
        <ele>123.19</ele>
        <time>2014-12-28T08:36:32Z</time>
      </trkpt>
      <trkpt lat="44.59145" lon="1.01717">
        <ele>124.63</ele>
        <time>2014-12-28T08:36:37Z</time>
      </trkpt>
      <trkpt lat="44.59149" lon="1.01731">
        <ele>125.11</ele>
        <time>2014-12-28T08:36:42Z</time>
      </trkpt>
      <trkpt lat="44.59172" lon="1.01773">
        <ele>127.03</ele>
        <time>2014-12-28T08:36:55Z</time>
      </trkpt>
      <trkpt lat="44.59191" lon="1.01812">
        <ele>127.51</ele>
        <time>2014-12-28T08:37:07Z</time>
      </trkpt>
      <trkpt lat="44.59198" lon="1.01866">
        <ele>128.95</ele>
        <time>2014-12-28T08:37:21Z</time>
      </trkpt>
      <trkpt lat="44.59198" lon="1.01886">
        <ele>129.43</ele>
        <time>2014-12-28T08:37:27Z</time>
      </trkpt>
      <trkpt lat="44.59196" lon="1.01909">
        <ele>130.88</ele>
        <time>2014-12-28T08:37:37Z</time>
      </trkpt>
      <trkpt lat="44.59195" lon="1.01937">
        <ele>135.68</ele>
        <time>2014-12-28T08:37:51Z</time>
      </trkpt>
      <trkpt lat="44.59195" lon="1.01941">
        <ele>136.64</ele>
        <time>2014-12-28T08:37:53Z</time>
      </trkpt>
      <trkpt lat="44.59195" lon="1.0195">
        <ele>137.61</ele>
        <time>2014-12-28T08:37:57Z</time>
      </trkpt>
      <trkpt lat="44.59194" lon="1.01986">
        <ele>142.41</ele>
        <time>2014-12-28T08:38:13Z</time>
      </trkpt>
      <trkpt lat="44.59194" lon="1.02014">
        <ele>144.34</ele>
        <time>2014-12-28T08:38:26Z</time>
      </trkpt>
      <trkpt lat="44.59194" lon="1.02032">
        <ele>146.74</ele>
        <time>2014-12-28T08:38:34Z</time>
      </trkpt>
      <trkpt lat="44.59196" lon="1.02058">
        <ele>150.58</ele>
        <time>2014-12-28T08:38:49Z</time>
      </trkpt>
      <trkpt lat="44.592" lon="1.02064">
        <ele>151.06</ele>
        <time>2014-12-28T08:39:07Z</time>
      </trkpt>
      <trkpt lat="44.592" lon="1.02068">
        <ele>155.39</ele>
        <time>2014-12-28T08:39:21Z</time>
      </trkpt>
      <trkpt lat="44.59201" lon="1.02087">
        <ele>158.75</ele>
        <time>2014-12-28T08:39:37Z</time>
      </trkpt>
      <trkpt lat="44.59201" lon="1.02091">
        <ele>158.75</ele>
        <time>2014-12-28T08:39:39Z</time>
      </trkpt>
      <trkpt lat="44.59204" lon="1.02108">
        <ele>162.12</ele>
        <time>2014-12-28T08:39:50Z</time>
      </trkpt>
      <trkpt lat="44.59206" lon="1.02119">
        <ele>163.56</ele>
        <time>2014-12-28T08:39:56Z</time>
      </trkpt>
      <trkpt lat="44.59207" lon="1.02133">
        <ele>164.04</ele>
        <time>2014-12-28T08:40:03Z</time>
      </trkpt>
      <trkpt lat="44.59209" lon="1.02139">
        <ele>164.52</ele>
        <time>2014-12-28T08:40:06Z</time>
      </trkpt>
      <trkpt lat="44.59212" lon="1.02154">
        <ele>165</ele>
        <time>2014-12-28T08:40:13Z</time>
      </trkpt>
      <trkpt lat="44.59217" lon="1.02174">
        <ele>166.45</ele>
        <time>2014-12-28T08:40:24Z</time>
      </trkpt>
      <trkpt lat="44.59219" lon="1.02186">
        <ele>167.89</ele>
        <time>2014-12-28T08:40:31Z</time>
      </trkpt>
      <trkpt lat="44.59224" lon="1.02205">
        <ele>168.37</ele>
        <time>2014-12-28T08:40:43Z</time>
      </trkpt>
      <trkpt lat="44.59229" lon="1.02217">
        <ele>169.33</ele>
        <time>2014-12-28T08:40:49Z</time>
      </trkpt>
      <trkpt lat="44.59231" lon="1.02224">
        <ele>171.25</ele>
        <time>2014-12-28T08:40:54Z</time>
      </trkpt>
      <trkpt lat="44.5923" lon="1.02226">
        <ele>172.21</ele>
        <time>2014-12-28T08:40:56Z</time>
      </trkpt>
      <trkpt lat="44.59214" lon="1.02214">
        <ele>173.17</ele>
        <time>2014-12-28T08:41:11Z</time>
      </trkpt>
      <trkpt lat="44.592" lon="1.02199">
        <ele>174.62</ele>
        <time>2014-12-28T08:41:23Z</time>
      </trkpt>
      <trkpt lat="44.59185" lon="1.02174">
        <ele>177.98</ele>
        <time>2014-12-28T08:41:37Z</time>
      </trkpt>
      <trkpt lat="44.5916" lon="1.02168">
        <ele>179.42</ele>
        <time>2014-12-28T08:41:53Z</time>
      </trkpt>
      <trkpt lat="44.59154" lon="1.02189">
        <ele>177.98</ele>
        <time>2014-12-28T08:42:08Z</time>
      </trkpt>
      <trkpt lat="44.59153" lon="1.0219">
        <ele>177.02</ele>
        <time>2014-12-28T08:42:37Z</time>
      </trkpt>
      <trkpt lat="44.59155" lon="1.02191">
        <ele>175.58</ele>
        <time>2014-12-28T08:43:04Z</time>
      </trkpt>
      <trkpt lat="44.59154" lon="1.02191">
        <ele>177.02</ele>
        <time>2014-12-28T08:43:14Z</time>
      </trkpt>
      <trkpt lat="44.59167" lon="1.0223">
        <ele>179.42</ele>
        <time>2014-12-28T08:43:30Z</time>
      </trkpt>
      <trkpt lat="44.59184" lon="1.02273">
        <ele>183.27</ele>
        <time>2014-12-28T08:43:47Z</time>
      </trkpt>
      <trkpt lat="44.59199" lon="1.02295">
        <ele>185.19</ele>
        <time>2014-12-28T08:44:01Z</time>
      </trkpt>
      <trkpt lat="44.59211" lon="1.02326">
        <ele>190</ele>
        <time>2014-12-28T08:44:17Z</time>
      </trkpt>
      <trkpt lat="44.5922" lon="1.02344">
        <ele>192.88</ele>
        <time>2014-12-28T08:44:27Z</time>
      </trkpt>
      <trkpt lat="44.59236" lon="1.02355">
        <ele>196.73</ele>
        <time>2014-12-28T08:44:39Z</time>
      </trkpt>
      <trkpt lat="44.59246" lon="1.02365">
        <ele>198.65</ele>
        <time>2014-12-28T08:44:47Z</time>
      </trkpt>
      <trkpt lat="44.59247" lon="1.02387">
        <ele>201.53</ele>
        <time>2014-12-28T08:44:59Z</time>
      </trkpt>
      <trkpt lat="44.59237" lon="1.02415">
        <ele>205.38</ele>
        <time>2014-12-28T08:45:14Z</time>
      </trkpt>
      <trkpt lat="44.59231" lon="1.02432">
        <ele>208.26</ele>
        <time>2014-12-28T08:45:22Z</time>
      </trkpt>
      <trkpt lat="44.59235" lon="1.02463">
        <ele>211.63</ele>
        <time>2014-12-28T08:45:38Z</time>
      </trkpt>
      <trkpt lat="44.59242" lon="1.02488">
        <ele>214.51</ele>
        <time>2014-12-28T08:45:50Z</time>
      </trkpt>
      <trkpt lat="44.59252" lon="1.02516">
        <ele>218.84</ele>
        <time>2014-12-28T08:46:04Z</time>
      </trkpt>
      <trkpt lat="44.59263" lon="1.02547">
        <ele>219.32</ele>
        <time>2014-12-28T08:46:17Z</time>
      </trkpt>
      <trkpt lat="44.59276" lon="1.02582">
        <ele>217.4</ele>
        <time>2014-12-28T08:46:32Z</time>
      </trkpt>
      <trkpt lat="44.59287" lon="1.02611">
        <ele>216.43</ele>
        <time>2014-12-28T08:46:46Z</time>
      </trkpt>
      <trkpt lat="44.593" lon="1.02646">
        <ele>215.95</ele>
        <time>2014-12-28T08:47:00Z</time>
      </trkpt>
      <trkpt lat="44.59309" lon="1.02666">
        <ele>215.47</ele>
        <time>2014-12-28T08:47:08Z</time>
      </trkpt>
      <trkpt lat="44.59317" lon="1.02687">
        <ele>214.51</ele>
        <time>2014-12-28T08:47:16Z</time>
      </trkpt>
      <trkpt lat="44.59326" lon="1.02712">
        <ele>214.51</ele>
        <time>2014-12-28T08:47:23Z</time>
      </trkpt>
      <trkpt lat="44.59349" lon="1.02788">
        <ele>210.67</ele>
        <time>2014-12-28T08:47:34Z</time>
      </trkpt>
      <trkpt lat="44.59368" lon="1.02836">
        <ele>208.26</ele>
        <time>2014-12-28T08:47:46Z</time>
      </trkpt>
      <trkpt lat="44.59389" lon="1.02906">
        <ele>207.3</ele>
        <time>2014-12-28T08:48:03Z</time>
      </trkpt>
      <trkpt lat="44.59412" lon="1.02984">
        <ele>208.26</ele>
        <time>2014-12-28T08:48:21Z</time>
      </trkpt>
      <trkpt lat="44.59439" lon="1.03054">
        <ele>207.3</ele>
        <time>2014-12-28T08:48:36Z</time>
      </trkpt>
      <trkpt lat="44.59472" lon="1.03167">
        <ele>205.38</ele>
        <time>2014-12-28T08:48:54Z</time>
      </trkpt>
      <trkpt lat="44.59498" lon="1.03282">
        <ele>206.82</ele>
        <time>2014-12-28T08:49:12Z</time>
      </trkpt>
      <trkpt lat="44.59522" lon="1.03386">
        <ele>210.67</ele>
        <time>2014-12-28T08:49:29Z</time>
      </trkpt>
      <trkpt lat="44.59526" lon="1.03402">
        <ele>211.15</ele>
        <time>2014-12-28T08:49:32Z</time>
      </trkpt>
      <trkpt lat="44.59556" lon="1.03495">
        <ele>215.47</ele>
        <time>2014-12-28T08:49:51Z</time>
      </trkpt>
      <trkpt lat="44.59582" lon="1.03577">
        <ele>219.32</ele>
        <time>2014-12-28T08:50:09Z</time>
      </trkpt>
      <trkpt lat="44.59595" lon="1.03653">
        <ele>218.36</ele>
        <time>2014-12-28T08:50:24Z</time>
      </trkpt>
      <trkpt lat="44.59601" lon="1.0373">
        <ele>218.36</ele>
        <time>2014-12-28T08:50:39Z</time>
      </trkpt>
      <trkpt lat="44.59599" lon="1.03826">
        <ele>217.4</ele>
        <time>2014-12-28T08:50:55Z</time>
      </trkpt>
      <trkpt lat="44.5959" lon="1.03923">
        <ele>215.95</ele>
        <time>2014-12-28T08:51:08Z</time>
      </trkpt>
      <trkpt lat="44.59589" lon="1.03944">
        <ele>215.95</ele>
        <time>2014-12-28T08:51:11Z</time>
      </trkpt>
      <trkpt lat="44.59585" lon="1.0402">
        <ele>214.51</ele>
        <time>2014-12-28T08:51:21Z</time>
      </trkpt>
      <trkpt lat="44.59587" lon="1.0415">
        <ele>210.67</ele>
        <time>2014-12-28T08:51:34Z</time>
      </trkpt>
      <trkpt lat="44.59587" lon="1.0416">
        <ele>210.67</ele>
        <time>2014-12-28T08:51:35Z</time>
      </trkpt>
      <trkpt lat="44.59603" lon="1.04192">
        <ele>208.74</ele>
        <time>2014-12-28T08:51:40Z</time>
      </trkpt>
      <trkpt lat="44.59616" lon="1.04206">
        <ele>208.74</ele>
        <time>2014-12-28T08:51:43Z</time>
      </trkpt>
      <trkpt lat="44.59649" lon="1.0424">
        <ele>209.22</ele>
        <time>2014-12-28T08:51:51Z</time>
      </trkpt>
      <trkpt lat="44.59669" lon="1.04268">
        <ele>209.22</ele>
        <time>2014-12-28T08:51:57Z</time>
      </trkpt>
      <trkpt lat="44.59697" lon="1.04343">
        <ele>205.86</ele>
        <time>2014-12-28T08:52:09Z</time>
      </trkpt>
      <trkpt lat="44.59732" lon="1.04391">
        <ele>205.86</ele>
        <time>2014-12-28T08:52:22Z</time>
      </trkpt>
      <trkpt lat="44.59766" lon="1.04417">
        <ele>208.26</ele>
        <time>2014-12-28T08:52:35Z</time>
      </trkpt>
      <trkpt lat="44.59796" lon="1.04453">
        <ele>210.19</ele>
        <time>2014-12-28T08:52:50Z</time>
      </trkpt>
      <trkpt lat="44.59821" lon="1.04483">
        <ele>212.11</ele>
        <time>2014-12-28T08:53:04Z</time>
      </trkpt>
      <trkpt lat="44.59823" lon="1.04485">
        <ele>212.11</ele>
        <time>2014-12-28T08:53:05Z</time>
      </trkpt>
      <trkpt lat="44.59831" lon="1.04494">
        <ele>212.59</ele>
        <time>2014-12-28T08:53:10Z</time>
      </trkpt>
      <trkpt lat="44.59844" lon="1.04509">
        <ele>215.47</ele>
        <time>2014-12-28T08:53:19Z</time>
      </trkpt>
      <trkpt lat="44.59868" lon="1.04537">
        <ele>217.88</ele>
        <time>2014-12-28T08:53:34Z</time>
      </trkpt>
      <trkpt lat="44.59891" lon="1.04565">
        <ele>221.24</ele>
        <time>2014-12-28T08:53:48Z</time>
      </trkpt>
      <trkpt lat="44.59912" lon="1.04599">
        <ele>224.12</ele>
        <time>2014-12-28T08:54:02Z</time>
      </trkpt>
      <trkpt lat="44.59932" lon="1.04632">
        <ele>225.57</ele>
        <time>2014-12-28T08:54:16Z</time>
      </trkpt>
      <trkpt lat="44.59943" lon="1.0465">
        <ele>227.01</ele>
        <time>2014-12-28T08:54:26Z</time>
      </trkpt>
      <trkpt lat="44.59944" lon="1.04652">
        <ele>228.45</ele>
        <time>2014-12-28T08:54:42Z</time>
      </trkpt>
      <trkpt lat="44.59943" lon="1.04651">
        <ele>227.97</ele>
        <time>2014-12-28T08:55:03Z</time>
      </trkpt>
      <trkpt lat="44.59943" lon="1.04652">
        <ele>227.97</ele>
        <time>2014-12-28T08:55:06Z</time>
      </trkpt>
      <trkpt lat="44.59946" lon="1.04653">
        <ele>227.97</ele>
        <time>2014-12-28T08:55:08Z</time>
      </trkpt>
      <trkpt lat="44.59973" lon="1.0468">
        <ele>224.61</ele>
        <time>2014-12-28T08:55:19Z</time>
      </trkpt>
      <trkpt lat="44.59986" lon="1.04718">
        <ele>220.76</ele>
        <time>2014-12-28T08:55:26Z</time>
      </trkpt>
      <trkpt lat="44.60001" lon="1.04759">
        <ele>218.36</ele>
        <time>2014-12-28T08:55:37Z</time>
      </trkpt>
      <trkpt lat="44.60021" lon="1.04805">
        <ele>217.88</ele>
        <time>2014-12-28T08:55:53Z</time>
      </trkpt>
      <trkpt lat="44.60041" lon="1.04825">
        <ele>220.28</ele>
        <time>2014-12-28T08:56:05Z</time>
      </trkpt>
      <trkpt lat="44.60071" lon="1.04824">
        <ele>223.16</ele>
        <time>2014-12-28T08:56:18Z</time>
      </trkpt>
      <trkpt lat="44.60102" lon="1.04852">
        <ele>224.61</ele>
        <time>2014-12-28T08:56:33Z</time>
      </trkpt>
      <trkpt lat="44.6012" lon="1.04887">
        <ele>226.53</ele>
        <time>2014-12-28T08:56:47Z</time>
      </trkpt>
      <trkpt lat="44.60133" lon="1.04936">
        <ele>226.53</ele>
        <time>2014-12-28T08:57:04Z</time>
      </trkpt>
      <trkpt lat="44.60134" lon="1.04938">
        <ele>226.05</ele>
        <time>2014-12-28T08:57:05Z</time>
      </trkpt>
      <trkpt lat="44.60135" lon="1.04992">
        <ele>226.05</ele>
        <time>2014-12-28T08:57:18Z</time>
      </trkpt>
      <trkpt lat="44.60145" lon="1.05022">
        <ele>226.53</ele>
        <time>2014-12-28T08:57:23Z</time>
      </trkpt>
      <trkpt lat="44.60189" lon="1.05062">
        <ele>227.01</ele>
        <time>2014-12-28T08:57:37Z</time>
      </trkpt>
      <trkpt lat="44.60236" lon="1.05077">
        <ele>229.41</ele>
        <time>2014-12-28T08:57:54Z</time>
      </trkpt>
      <trkpt lat="44.60257" lon="1.05087">
        <ele>229.89</ele>
        <time>2014-12-28T08:58:05Z</time>
      </trkpt>
      <trkpt lat="44.60259" lon="1.05087">
        <ele>229.89</ele>
        <time>2014-12-28T08:58:06Z</time>
      </trkpt>
      <trkpt lat="44.60264" lon="1.05077">
        <ele>229.41</ele>
        <time>2014-12-28T08:58:12Z</time>
      </trkpt>
      <trkpt lat="44.60277" lon="1.05043">
        <ele>226.53</ele>
        <time>2014-12-28T08:58:26Z</time>
      </trkpt>
      <trkpt lat="44.60285" lon="1.05026">
        <ele>225.57</ele>
        <time>2014-12-28T08:58:31Z</time>
      </trkpt>
      <trkpt lat="44.60309" lon="1.04996">
        <ele>223.16</ele>
        <time>2014-12-28T08:58:41Z</time>
      </trkpt>
      <trkpt lat="44.60335" lon="1.04961">
        <ele>224.61</ele>
        <time>2014-12-28T08:58:53Z</time>
      </trkpt>
      <trkpt lat="44.6037" lon="1.04923">
        <ele>227.01</ele>
        <time>2014-12-28T08:59:06Z</time>
      </trkpt>
      <trkpt lat="44.60403" lon="1.04883">
        <ele>227.97</ele>
        <time>2014-12-28T08:59:19Z</time>
      </trkpt>
      <trkpt lat="44.60415" lon="1.04863">
        <ele>226.53</ele>
        <time>2014-12-28T08:59:23Z</time>
      </trkpt>
      <trkpt lat="44.60425" lon="1.04847">
        <ele>226.53</ele>
        <time>2014-12-28T08:59:26Z</time>
      </trkpt>
      <trkpt lat="44.6045" lon="1.04812">
        <ele>224.61</ele>
        <time>2014-12-28T08:59:32Z</time>
      </trkpt>
      <trkpt lat="44.60459" lon="1.04797">
        <ele>223.64</ele>
        <time>2014-12-28T08:59:34Z</time>
      </trkpt>
      <trkpt lat="44.60491" lon="1.04742">
        <ele>219.32</ele>
        <time>2014-12-28T08:59:41Z</time>
      </trkpt>
      <trkpt lat="44.60506" lon="1.04718">
        <ele>217.4</ele>
        <time>2014-12-28T08:59:45Z</time>
      </trkpt>
      <trkpt lat="44.60513" lon="1.04705">
        <ele>216.43</ele>
        <time>2014-12-28T08:59:47Z</time>
      </trkpt>
      <trkpt lat="44.60526" lon="1.04675">
        <ele>214.03</ele>
        <time>2014-12-28T08:59:51Z</time>
      </trkpt>
      <trkpt lat="44.60538" lon="1.0465">
        <ele>212.59</ele>
        <time>2014-12-28T08:59:55Z</time>
      </trkpt>
      <trkpt lat="44.60548" lon="1.04627">
        <ele>211.15</ele>
        <time>2014-12-28T08:59:59Z</time>
      </trkpt>
      <trkpt lat="44.60566" lon="1.04578">
        <ele>206.82</ele>
        <time>2014-12-28T09:00:11Z</time>
      </trkpt>
      <trkpt lat="44.60579" lon="1.04542">
        <ele>202.98</ele>
        <time>2014-12-28T09:00:24Z</time>
      </trkpt>
      <trkpt lat="44.60585" lon="1.04517">
        <ele>201.53</ele>
        <time>2014-12-28T09:00:35Z</time>
      </trkpt>
      <trkpt lat="44.60585" lon="1.04516">
        <ele>201.05</ele>
        <time>2014-12-28T09:00:53Z</time>
      </trkpt>
      <trkpt lat="44.60585" lon="1.04514">
        <ele>201.05</ele>
        <time>2014-12-28T09:00:55Z</time>
      </trkpt>
      <trkpt lat="44.60587" lon="1.04498">
        <ele>200.57</ele>
        <time>2014-12-28T09:01:02Z</time>
      </trkpt>
      <trkpt lat="44.60592" lon="1.04443">
        <ele>201.05</ele>
        <time>2014-12-28T09:01:15Z</time>
      </trkpt>
      <trkpt lat="44.60595" lon="1.0441">
        <ele>200.57</ele>
        <time>2014-12-28T09:01:21Z</time>
      </trkpt>
      <trkpt lat="44.60598" lon="1.04391">
        <ele>200.09</ele>
        <time>2014-12-28T09:01:24Z</time>
      </trkpt>
      <trkpt lat="44.60609" lon="1.04343">
        <ele>199.61</ele>
        <time>2014-12-28T09:01:32Z</time>
      </trkpt>
      <trkpt lat="44.6061" lon="1.04247">
        <ele>199.13</ele>
        <time>2014-12-28T09:01:48Z</time>
      </trkpt>
      <trkpt lat="44.60611" lon="1.0422">
        <ele>201.05</ele>
        <time>2014-12-28T09:01:54Z</time>
      </trkpt>
      <trkpt lat="44.60618" lon="1.04212">
        <ele>202.49</ele>
        <time>2014-12-28T09:01:59Z</time>
      </trkpt>
      <trkpt lat="44.60632" lon="1.04184">
        <ele>203.94</ele>
        <time>2014-12-28T09:02:13Z</time>
      </trkpt>
      <trkpt lat="44.60645" lon="1.04135">
        <ele>203.46</ele>
        <time>2014-12-28T09:02:26Z</time>
      </trkpt>
      <trkpt lat="44.60652" lon="1.04099">
        <ele>202.49</ele>
        <time>2014-12-28T09:02:33Z</time>
      </trkpt>
      <trkpt lat="44.60673" lon="1.04066">
        <ele>198.65</ele>
        <time>2014-12-28T09:02:39Z</time>
      </trkpt>
      <trkpt lat="44.60681" lon="1.04053">
        <ele>196.73</ele>
        <time>2014-12-28T09:02:41Z</time>
      </trkpt>
      <trkpt lat="44.60695" lon="1.0403">
        <ele>194.32</ele>
        <time>2014-12-28T09:02:45Z</time>
      </trkpt>
      <trkpt lat="44.60721" lon="1.03962">
        <ele>191.92</ele>
        <time>2014-12-28T09:02:57Z</time>
      </trkpt>
      <trkpt lat="44.60729" lon="1.03958">
        <ele>191.92</ele>
        <time>2014-12-28T09:03:05Z</time>
      </trkpt>
      <trkpt lat="44.60737" lon="1.03957">
        <ele>190.48</ele>
        <time>2014-12-28T09:03:22Z</time>
      </trkpt>
      <trkpt lat="44.60759" lon="1.03944">
        <ele>188.56</ele>
        <time>2014-12-28T09:03:31Z</time>
      </trkpt>
      <trkpt lat="44.60768" lon="1.0393">
        <ele>186.63</ele>
        <time>2014-12-28T09:03:34Z</time>
      </trkpt>
      <trkpt lat="44.60775" lon="1.03916">
        <ele>184.23</ele>
        <time>2014-12-28T09:03:37Z</time>
      </trkpt>
      <trkpt lat="44.60782" lon="1.03881">
        <ele>178.46</ele>
        <time>2014-12-28T09:03:42Z</time>
      </trkpt>
      <trkpt lat="44.60789" lon="1.03849">
        <ele>173.66</ele>
        <time>2014-12-28T09:03:46Z</time>
      </trkpt>
      <trkpt lat="44.60792" lon="1.03834">
        <ele>170.29</ele>
        <time>2014-12-28T09:03:49Z</time>
      </trkpt>
      <trkpt lat="44.60799" lon="1.0382">
        <ele>165.96</ele>
        <time>2014-12-28T09:03:53Z</time>
      </trkpt>
      <trkpt lat="44.60818" lon="1.03784">
        <ele>161.64</ele>
        <time>2014-12-28T09:03:59Z</time>
      </trkpt>
      <trkpt lat="44.60849" lon="1.03741">
        <ele>158.75</ele>
        <time>2014-12-28T09:04:08Z</time>
      </trkpt>
      <trkpt lat="44.60842" lon="1.03701">
        <ele>155.87</ele>
        <time>2014-12-28T09:04:15Z</time>
      </trkpt>
      <trkpt lat="44.60838" lon="1.03697">
        <ele>155.87</ele>
        <time>2014-12-28T09:04:16Z</time>
      </trkpt>
      <trkpt lat="44.60831" lon="1.03681">
        <ele>154.91</ele>
        <time>2014-12-28T09:04:21Z</time>
      </trkpt>
      <trkpt lat="44.60832" lon="1.03678">
        <ele>153.95</ele>
        <time>2014-12-28T09:04:33Z</time>
      </trkpt>
      <trkpt lat="44.60832" lon="1.03675">
        <ele>153.47</ele>
        <time>2014-12-28T09:04:49Z</time>
      </trkpt>
      <trkpt lat="44.60832" lon="1.03674">
        <ele>153.95</ele>
        <time>2014-12-28T09:05:09Z</time>
      </trkpt>
      <trkpt lat="44.60831" lon="1.0368">
        <ele>153.95</ele>
        <time>2014-12-28T09:05:21Z</time>
      </trkpt>
      <trkpt lat="44.60832" lon="1.0368">
        <ele>153.95</ele>
        <time>2014-12-28T09:05:23Z</time>
      </trkpt>
      <trkpt lat="44.60821" lon="1.03703">
        <ele>152.99</ele>
        <time>2014-12-28T09:05:33Z</time>
      </trkpt>
      <trkpt lat="44.60808" lon="1.03712">
        <ele>152.03</ele>
        <time>2014-12-28T09:05:36Z</time>
      </trkpt>
      <trkpt lat="44.60786" lon="1.03719">
        <ele>150.1</ele>
        <time>2014-12-28T09:05:40Z</time>
      </trkpt>
      <trkpt lat="44.60732" lon="1.03753">
        <ele>142.89</ele>
        <time>2014-12-28T09:05:51Z</time>
      </trkpt>
      <trkpt lat="44.60715" lon="1.03781">
        <ele>139.05</ele>
        <time>2014-12-28T09:05:55Z</time>
      </trkpt>
      <trkpt lat="44.60678" lon="1.03849">
        <ele>132.32</ele>
        <time>2014-12-28T09:06:05Z</time>
      </trkpt>
      <trkpt lat="44.60662" lon="1.03869">
        <ele>131.36</ele>
        <time>2014-12-28T09:06:10Z</time>
      </trkpt>
      <trkpt lat="44.60628" lon="1.03889">
        <ele>136.16</ele>
        <time>2014-12-28T09:06:20Z</time>
      </trkpt>
      <trkpt lat="44.60576" lon="1.03906">
        <ele>140.97</ele>
        <time>2014-12-28T09:06:33Z</time>
      </trkpt>
      <trkpt lat="44.60572" lon="1.03907">
        <ele>141.45</ele>
        <time>2014-12-28T09:06:34Z</time>
      </trkpt>
      <trkpt lat="44.60519" lon="1.03912">
        <ele>141.93</ele>
        <time>2014-12-28T09:06:48Z</time>
      </trkpt>
      <trkpt lat="44.60476" lon="1.03898">
        <ele>141.93</ele>
        <time>2014-12-28T09:07:01Z</time>
      </trkpt>
      <trkpt lat="44.60448" lon="1.03886">
        <ele>143.37</ele>
        <time>2014-12-28T09:07:10Z</time>
      </trkpt>
      <trkpt lat="44.60409" lon="1.03889">
        <ele>141.93</ele>
        <time>2014-12-28T09:07:23Z</time>
      </trkpt>
      <trkpt lat="44.60382" lon="1.03882">
        <ele>142.41</ele>
        <time>2014-12-28T09:07:35Z</time>
      </trkpt>
      <trkpt lat="44.6035" lon="1.03893">
        <ele>144.82</ele>
        <time>2014-12-28T09:07:52Z</time>
      </trkpt>
      <trkpt lat="44.6032" lon="1.03904">
        <ele>148.66</ele>
        <time>2014-12-28T09:08:08Z</time>
      </trkpt>
      <trkpt lat="44.60303" lon="1.03892">
        <ele>149.14</ele>
        <time>2014-12-28T09:08:20Z</time>
      </trkpt>
      <trkpt lat="44.60305" lon="1.03847">
        <ele>147.22</ele>
        <time>2014-12-28T09:08:32Z</time>
      </trkpt>
      <trkpt lat="44.60344" lon="1.03815">
        <ele>145.78</ele>
        <time>2014-12-28T09:08:44Z</time>
      </trkpt>
      <trkpt lat="44.60365" lon="1.03802">
        <ele>144.82</ele>
        <time>2014-12-28T09:08:48Z</time>
      </trkpt>
      <trkpt lat="44.60397" lon="1.03747">
        <ele>141.93</ele>
        <time>2014-12-28T09:08:56Z</time>
      </trkpt>
      <trkpt lat="44.60396" lon="1.03727">
        <ele>140.49</ele>
        <time>2014-12-28T09:08:58Z</time>
      </trkpt>
      <trkpt lat="44.6039" lon="1.03666">
        <ele>137.13</ele>
        <time>2014-12-28T09:09:04Z</time>
      </trkpt>
      <trkpt lat="44.60412" lon="1.03603">
        <ele>133.28</ele>
        <time>2014-12-28T09:09:11Z</time>
      </trkpt>
      <trkpt lat="44.60486" lon="1.03549">
        <ele>133.28</ele>
        <time>2014-12-28T09:09:25Z</time>
      </trkpt>
      <trkpt lat="44.60552" lon="1.03498">
        <ele>133.76</ele>
        <time>2014-12-28T09:09:40Z</time>
      </trkpt>
      <trkpt lat="44.60567" lon="1.03475">
        <ele>135.68</ele>
        <time>2014-12-28T09:09:45Z</time>
      </trkpt>
      <trkpt lat="44.60581" lon="1.03427">
        <ele>136.64</ele>
        <time>2014-12-28T09:09:58Z</time>
      </trkpt>
      <trkpt lat="44.60594" lon="1.0339">
        <ele>135.2</ele>
        <time>2014-12-28T09:10:08Z</time>
      </trkpt>
      <trkpt lat="44.60629" lon="1.03349">
        <ele>136.64</ele>
        <time>2014-12-28T09:10:22Z</time>
      </trkpt>
      <trkpt lat="44.60651" lon="1.03306">
        <ele>135.68</ele>
        <time>2014-12-28T09:10:33Z</time>
      </trkpt>
      <trkpt lat="44.60677" lon="1.03246">
        <ele>136.16</ele>
        <time>2014-12-28T09:10:51Z</time>
      </trkpt>
      <trkpt lat="44.60706" lon="1.03214">
        <ele>135.2</ele>
        <time>2014-12-28T09:11:02Z</time>
      </trkpt>
      <trkpt lat="44.60727" lon="1.0321">
        <ele>136.16</ele>
        <time>2014-12-28T09:11:08Z</time>
      </trkpt>
      <trkpt lat="44.60771" lon="1.03208">
        <ele>140.01</ele>
        <time>2014-12-28T09:11:21Z</time>
      </trkpt>
      <trkpt lat="44.60812" lon="1.03234">
        <ele>137.61</ele>
        <time>2014-12-28T09:11:34Z</time>
      </trkpt>
      <trkpt lat="44.60859" lon="1.03256">
        <ele>137.61</ele>
        <time>2014-12-28T09:11:48Z</time>
      </trkpt>
      <trkpt lat="44.60898" lon="1.03269">
        <ele>138.09</ele>
        <time>2014-12-28T09:12:00Z</time>
      </trkpt>
      <trkpt lat="44.60944" lon="1.03265">
        <ele>139.05</ele>
        <time>2014-12-28T09:12:13Z</time>
      </trkpt>
      <trkpt lat="44.60971" lon="1.03236">
        <ele>140.49</ele>
        <time>2014-12-28T09:12:23Z</time>
      </trkpt>
      <trkpt lat="44.61022" lon="1.03195">
        <ele>141.45</ele>
        <time>2014-12-28T09:12:38Z</time>
      </trkpt>
      <trkpt lat="44.6106" lon="1.0319">
        <ele>141.93</ele>
        <time>2014-12-28T09:12:49Z</time>
      </trkpt>
      <trkpt lat="44.61095" lon="1.03198">
        <ele>143.37</ele>
        <time>2014-12-28T09:12:59Z</time>
      </trkpt>
      <trkpt lat="44.6113" lon="1.03206">
        <ele>146.74</ele>
        <time>2014-12-28T09:13:11Z</time>
      </trkpt>
      <trkpt lat="44.61164" lon="1.03203">
        <ele>143.85</ele>
        <time>2014-12-28T09:13:23Z</time>
      </trkpt>
      <trkpt lat="44.61193" lon="1.03204">
        <ele>141.45</ele>
        <time>2014-12-28T09:13:33Z</time>
      </trkpt>
      <trkpt lat="44.61213" lon="1.03227">
        <ele>140.97</ele>
        <time>2014-12-28T09:13:43Z</time>
      </trkpt>
      <trkpt lat="44.61219" lon="1.03252">
        <ele>143.37</ele>
        <time>2014-12-28T09:13:52Z</time>
      </trkpt>
      <trkpt lat="44.6122" lon="1.03263">
        <ele>143.85</ele>
        <time>2014-12-28T09:13:56Z</time>
      </trkpt>
      <trkpt lat="44.61225" lon="1.0327">
        <ele>145.78</ele>
        <time>2014-12-28T09:14:00Z</time>
      </trkpt>
      <trkpt lat="44.61241" lon="1.03269">
        <ele>147.7</ele>
        <time>2014-12-28T09:14:08Z</time>
      </trkpt>
      <trkpt lat="44.6126" lon="1.03262">
        <ele>151.54</ele>
        <time>2014-12-28T09:14:18Z</time>
      </trkpt>
      <trkpt lat="44.61288" lon="1.03249">
        <ele>157.79</ele>
        <time>2014-12-28T09:14:32Z</time>
      </trkpt>
      <trkpt lat="44.6132" lon="1.03261">
        <ele>162.12</ele>
        <time>2014-12-28T09:14:46Z</time>
      </trkpt>
      <trkpt lat="44.61352" lon="1.03272">
        <ele>164.04</ele>
        <time>2014-12-28T09:14:58Z</time>
      </trkpt>
      <trkpt lat="44.61384" lon="1.03251">
        <ele>167.89</ele>
        <time>2014-12-28T09:15:12Z</time>
      </trkpt>
      <trkpt lat="44.61408" lon="1.03217">
        <ele>166.93</ele>
        <time>2014-12-28T09:15:25Z</time>
      </trkpt>
      <trkpt lat="44.61435" lon="1.03193">
        <ele>160.68</ele>
        <time>2014-12-28T09:15:36Z</time>
      </trkpt>
      <trkpt lat="44.61464" lon="1.03194">
        <ele>160.2</ele>
        <time>2014-12-28T09:15:47Z</time>
      </trkpt>
      <trkpt lat="44.61477" lon="1.03228">
        <ele>160.2</ele>
        <time>2014-12-28T09:15:58Z</time>
      </trkpt>
      <trkpt lat="44.61493" lon="1.03269">
        <ele>161.16</ele>
        <time>2014-12-28T09:16:09Z</time>
      </trkpt>
      <trkpt lat="44.61529" lon="1.03282">
        <ele>164.04</ele>
        <time>2014-12-28T09:16:21Z</time>
      </trkpt>
      <trkpt lat="44.61545" lon="1.0325">
        <ele>167.41</ele>
        <time>2014-12-28T09:16:31Z</time>
      </trkpt>
      <trkpt lat="44.61552" lon="1.03186">
        <ele>166.93</ele>
        <time>2014-12-28T09:16:46Z</time>
      </trkpt>
      <trkpt lat="44.61564" lon="1.03151">
        <ele>165.96</ele>
        <time>2014-12-28T09:16:56Z</time>
      </trkpt>
      <trkpt lat="44.61589" lon="1.03113">
        <ele>165.96</ele>
        <time>2014-12-28T09:17:08Z</time>
      </trkpt>
      <trkpt lat="44.61602" lon="1.03059">
        <ele>168.37</ele>
        <time>2014-12-28T09:17:21Z</time>
      </trkpt>
      <trkpt lat="44.61617" lon="1.03008">
        <ele>171.25</ele>
        <time>2014-12-28T09:17:32Z</time>
      </trkpt>
      <trkpt lat="44.61643" lon="1.02979">
        <ele>171.25</ele>
        <time>2014-12-28T09:17:43Z</time>
      </trkpt>
      <trkpt lat="44.61685" lon="1.02956">
        <ele>175.58</ele>
        <time>2014-12-28T09:17:57Z</time>
      </trkpt>
      <trkpt lat="44.61716" lon="1.02943">
        <ele>179.42</ele>
        <time>2014-12-28T09:18:09Z</time>
      </trkpt>
      <trkpt lat="44.61745" lon="1.02905">
        <ele>182.31</ele>
        <time>2014-12-28T09:18:21Z</time>
      </trkpt>
      <trkpt lat="44.61763" lon="1.02867">
        <ele>185.19</ele>
        <time>2014-12-28T09:18:32Z</time>
      </trkpt>
      <trkpt lat="44.61787" lon="1.02825">
        <ele>185.67</ele>
        <time>2014-12-28T09:18:44Z</time>
      </trkpt>
      <trkpt lat="44.61816" lon="1.02785">
        <ele>186.63</ele>
        <time>2014-12-28T09:18:56Z</time>
      </trkpt>
      <trkpt lat="44.61845" lon="1.02752">
        <ele>187.59</ele>
        <time>2014-12-28T09:19:07Z</time>
      </trkpt>
      <trkpt lat="44.61871" lon="1.02721">
        <ele>188.08</ele>
        <time>2014-12-28T09:19:18Z</time>
      </trkpt>
      <trkpt lat="44.61893" lon="1.02674">
        <ele>185.19</ele>
        <time>2014-12-28T09:19:29Z</time>
      </trkpt>
      <trkpt lat="44.61909" lon="1.02642">
        <ele>185.19</ele>
        <time>2014-12-28T09:19:41Z</time>
      </trkpt>
      <trkpt lat="44.61917" lon="1.02635">
        <ele>183.75</ele>
        <time>2014-12-28T09:19:54Z</time>
      </trkpt>
      <trkpt lat="44.61924" lon="1.02629">
        <ele>181.83</ele>
        <time>2014-12-28T09:20:06Z</time>
      </trkpt>
      <trkpt lat="44.61926" lon="1.02628">
        <ele>181.83</ele>
        <time>2014-12-28T09:20:08Z</time>
      </trkpt>
      <trkpt lat="44.61924" lon="1.02611">
        <ele>180.87</ele>
        <time>2014-12-28T09:20:15Z</time>
      </trkpt>
      <trkpt lat="44.61909" lon="1.02571">
        <ele>184.71</ele>
        <time>2014-12-28T09:20:30Z</time>
      </trkpt>
      <trkpt lat="44.61896" lon="1.0254">
        <ele>188.56</ele>
        <time>2014-12-28T09:20:42Z</time>
      </trkpt>
      <trkpt lat="44.61889" lon="1.02509">
        <ele>188.08</ele>
        <time>2014-12-28T09:20:53Z</time>
      </trkpt>
      <trkpt lat="44.61879" lon="1.025">
        <ele>190</ele>
        <time>2014-12-28T09:20:59Z</time>
      </trkpt>
      <trkpt lat="44.61864" lon="1.02496">
        <ele>194.8</ele>
        <time>2014-12-28T09:21:07Z</time>
      </trkpt>
      <trkpt lat="44.61844" lon="1.02488">
        <ele>199.61</ele>
        <time>2014-12-28T09:21:17Z</time>
      </trkpt>
      <trkpt lat="44.61823" lon="1.02475">
        <ele>203.94</ele>
        <time>2014-12-28T09:21:31Z</time>
      </trkpt>
      <trkpt lat="44.6181" lon="1.0247">
        <ele>206.34</ele>
        <time>2014-12-28T09:21:39Z</time>
      </trkpt>
      <trkpt lat="44.61803" lon="1.02467">
        <ele>208.74</ele>
        <time>2014-12-28T09:21:44Z</time>
      </trkpt>
      <trkpt lat="44.61786" lon="1.02456">
        <ele>213.55</ele>
        <time>2014-12-28T09:21:56Z</time>
      </trkpt>
      <trkpt lat="44.61771" lon="1.0244">
        <ele>217.4</ele>
        <time>2014-12-28T09:22:08Z</time>
      </trkpt>
      <trkpt lat="44.61768" lon="1.02439">
        <ele>217.88</ele>
        <time>2014-12-28T09:22:11Z</time>
      </trkpt>
      <trkpt lat="44.61751" lon="1.02434">
        <ele>219.8</ele>
        <time>2014-12-28T09:22:24Z</time>
      </trkpt>
      <trkpt lat="44.61732" lon="1.02431">
        <ele>221.24</ele>
        <time>2014-12-28T09:22:37Z</time>
      </trkpt>
      <trkpt lat="44.61712" lon="1.02426">
        <ele>223.64</ele>
        <time>2014-12-28T09:22:52Z</time>
      </trkpt>
      <trkpt lat="44.61708" lon="1.02424">
        <ele>224.12</ele>
        <time>2014-12-28T09:22:55Z</time>
      </trkpt>
      <trkpt lat="44.61703" lon="1.02423">
        <ele>224.61</ele>
        <time>2014-12-28T09:22:59Z</time>
      </trkpt>
      <trkpt lat="44.61697" lon="1.02421">
        <ele>225.09</ele>
        <time>2014-12-28T09:23:03Z</time>
      </trkpt>
      <trkpt lat="44.61692" lon="1.0242">
        <ele>226.05</ele>
        <time>2014-12-28T09:23:07Z</time>
      </trkpt>
      <trkpt lat="44.61688" lon="1.0242">
        <ele>227.01</ele>
        <time>2014-12-28T09:23:10Z</time>
      </trkpt>
      <trkpt lat="44.6167" lon="1.02422">
        <ele>228.93</ele>
        <time>2014-12-28T09:23:21Z</time>
      </trkpt>
      <trkpt lat="44.61667" lon="1.02422">
        <ele>229.41</ele>
        <time>2014-12-28T09:23:23Z</time>
      </trkpt>
      <trkpt lat="44.61652" lon="1.02424">
        <ele>229.89</ele>
        <time>2014-12-28T09:23:31Z</time>
      </trkpt>
      <trkpt lat="44.61628" lon="1.02422">
        <ele>229.89</ele>
        <time>2014-12-28T09:23:45Z</time>
      </trkpt>
      <trkpt lat="44.61602" lon="1.02413">
        <ele>229.89</ele>
        <time>2014-12-28T09:24:00Z</time>
      </trkpt>
      <trkpt lat="44.61577" lon="1.02406">
        <ele>231.81</ele>
        <time>2014-12-28T09:24:12Z</time>
      </trkpt>
      <trkpt lat="44.61567" lon="1.02404">
        <ele>231.81</ele>
        <time>2014-12-28T09:24:16Z</time>
      </trkpt>
      <trkpt lat="44.61543" lon="1.02388">
        <ele>231.33</ele>
        <time>2014-12-28T09:24:28Z</time>
      </trkpt>
      <trkpt lat="44.61532" lon="1.02381">
        <ele>232.3</ele>
        <time>2014-12-28T09:24:33Z</time>
      </trkpt>
      <trkpt lat="44.61502" lon="1.02367">
        <ele>234.22</ele>
        <time>2014-12-28T09:24:48Z</time>
      </trkpt>
      <trkpt lat="44.61474" lon="1.02371">
        <ele>237.1</ele>
        <time>2014-12-28T09:25:01Z</time>
      </trkpt>
      <trkpt lat="44.61441" lon="1.02375">
        <ele>239.02</ele>
        <time>2014-12-28T09:25:14Z</time>
      </trkpt>
      <trkpt lat="44.6142" lon="1.02382">
        <ele>241.43</ele>
        <time>2014-12-28T09:25:25Z</time>
      </trkpt>
      <trkpt lat="44.61395" lon="1.02392">
        <ele>243.35</ele>
        <time>2014-12-28T09:25:39Z</time>
      </trkpt>
      <trkpt lat="44.61368" lon="1.02403">
        <ele>244.31</ele>
        <time>2014-12-28T09:25:52Z</time>
      </trkpt>
      <trkpt lat="44.61343" lon="1.02403">
        <ele>246.72</ele>
        <time>2014-12-28T09:26:06Z</time>
      </trkpt>
      <trkpt lat="44.61337" lon="1.02397">
        <ele>246.23</ele>
        <time>2014-12-28T09:26:21Z</time>
      </trkpt>
      <trkpt lat="44.61336" lon="1.02397">
        <ele>247.2</ele>
        <time>2014-12-28T09:26:44Z</time>
      </trkpt>
      <trkpt lat="44.61336" lon="1.02399">
        <ele>247.2</ele>
        <time>2014-12-28T09:27:04Z</time>
      </trkpt>
      <trkpt lat="44.61335" lon="1.02398">
        <ele>248.16</ele>
        <time>2014-12-28T09:27:26Z</time>
      </trkpt>
      <trkpt lat="44.61303" lon="1.02379">
        <ele>246.72</ele>
        <time>2014-12-28T09:27:39Z</time>
      </trkpt>
      <trkpt lat="44.61299" lon="1.02377">
        <ele>246.23</ele>
        <time>2014-12-28T09:27:40Z</time>
      </trkpt>
      <trkpt lat="44.6128" lon="1.02358">
        <ele>243.35</ele>
        <time>2014-12-28T09:27:47Z</time>
      </trkpt>
      <trkpt lat="44.61295" lon="1.02329">
        <ele>241.43</ele>
        <time>2014-12-28T09:27:58Z</time>
      </trkpt>
      <trkpt lat="44.61299" lon="1.02325">
        <ele>241.43</ele>
        <time>2014-12-28T09:28:00Z</time>
      </trkpt>
      <trkpt lat="44.61321" lon="1.0231">
        <ele>242.39</ele>
        <time>2014-12-28T09:28:10Z</time>
      </trkpt>
      <trkpt lat="44.6132" lon="1.02284">
        <ele>244.79</ele>
        <time>2014-12-28T09:28:17Z</time>
      </trkpt>
      <trkpt lat="44.61318" lon="1.02283">
        <ele>245.27</ele>
        <time>2014-12-28T09:28:21Z</time>
      </trkpt>
      <trkpt lat="44.61322" lon="1.02278">
        <ele>245.75</ele>
        <time>2014-12-28T09:28:34Z</time>
      </trkpt>
      <trkpt lat="44.61324" lon="1.02277">
        <ele>246.23</ele>
        <time>2014-12-28T09:28:47Z</time>
      </trkpt>
      <trkpt lat="44.61348" lon="1.02273">
        <ele>247.68</ele>
        <time>2014-12-28T09:28:58Z</time>
      </trkpt>
      <trkpt lat="44.61365" lon="1.02272">
        <ele>249.12</ele>
        <time>2014-12-28T09:29:05Z</time>
      </trkpt>
      <trkpt lat="44.61368" lon="1.02266">
        <ele>249.12</ele>
        <time>2014-12-28T09:29:09Z</time>
      </trkpt>
      <trkpt lat="44.6138" lon="1.02232">
        <ele>249.6</ele>
        <time>2014-12-28T09:29:22Z</time>
      </trkpt>
      <trkpt lat="44.61395" lon="1.02181">
        <ele>250.08</ele>
        <time>2014-12-28T09:29:36Z</time>
      </trkpt>
      <trkpt lat="44.61414" lon="1.02096">
        <ele>248.64</ele>
        <time>2014-12-28T09:29:53Z</time>
      </trkpt>
      <trkpt lat="44.61438" lon="1.02003">
        <ele>249.6</ele>
        <time>2014-12-28T09:30:10Z</time>
      </trkpt>
      <trkpt lat="44.6146" lon="1.01939">
        <ele>250.08</ele>
        <time>2014-12-28T09:30:22Z</time>
      </trkpt>
      <trkpt lat="44.61502" lon="1.0186">
        <ele>252.96</ele>
        <time>2014-12-28T09:30:38Z</time>
      </trkpt>
      <trkpt lat="44.61506" lon="1.0185">
        <ele>253.44</ele>
        <time>2014-12-28T09:30:40Z</time>
      </trkpt>
      <trkpt lat="44.61521" lon="1.01818">
        <ele>254.41</ele>
        <time>2014-12-28T09:30:46Z</time>
      </trkpt>
      <trkpt lat="44.61536" lon="1.01806">
        <ele>255.85</ele>
        <time>2014-12-28T09:30:50Z</time>
      </trkpt>
      <trkpt lat="44.61548" lon="1.01802">
        <ele>256.33</ele>
        <time>2014-12-28T09:30:53Z</time>
      </trkpt>
      <trkpt lat="44.61561" lon="1.01795">
        <ele>257.29</ele>
        <time>2014-12-28T09:30:56Z</time>
      </trkpt>
      <trkpt lat="44.61576" lon="1.01783">
        <ele>258.25</ele>
        <time>2014-12-28T09:31:00Z</time>
      </trkpt>
      <trkpt lat="44.61641" lon="1.01722">
        <ele>258.25</ele>
        <time>2014-12-28T09:31:17Z</time>
      </trkpt>
      <trkpt lat="44.61695" lon="1.01666">
        <ele>259.69</ele>
        <time>2014-12-28T09:31:31Z</time>
      </trkpt>
      <trkpt lat="44.61699" lon="1.01663">
        <ele>260.17</ele>
        <time>2014-12-28T09:31:32Z</time>
      </trkpt>
      <trkpt lat="44.6173" lon="1.01637">
        <ele>261.62</ele>
        <time>2014-12-28T09:31:40Z</time>
      </trkpt>
      <trkpt lat="44.6179" lon="1.01585">
        <ele>264.98</ele>
        <time>2014-12-28T09:31:56Z</time>
      </trkpt>
      <trkpt lat="44.6186" lon="1.01512">
        <ele>267.86</ele>
        <time>2014-12-28T09:32:14Z</time>
      </trkpt>
      <trkpt lat="44.61886" lon="1.01476">
        <ele>264.02</ele>
        <time>2014-12-28T09:32:21Z</time>
      </trkpt>
      <trkpt lat="44.61881" lon="1.01459">
        <ele>263.06</ele>
        <time>2014-12-28T09:32:25Z</time>
      </trkpt>
      <trkpt lat="44.6185" lon="1.0143">
        <ele>265.46</ele>
        <time>2014-12-28T09:32:36Z</time>
      </trkpt>
      <trkpt lat="44.61814" lon="1.01394">
        <ele>266.42</ele>
        <time>2014-12-28T09:32:47Z</time>
      </trkpt>
      <trkpt lat="44.61782" lon="1.01366">
        <ele>266.42</ele>
        <time>2014-12-28T09:32:55Z</time>
      </trkpt>
      <trkpt lat="44.61716" lon="1.01325">
        <ele>264.98</ele>
        <time>2014-12-28T09:33:08Z</time>
      </trkpt>
      <trkpt lat="44.6163" lon="1.0126">
        <ele>261.62</ele>
        <time>2014-12-28T09:33:26Z</time>
      </trkpt>
      <trkpt lat="44.61601" lon="1.01246">
        <ele>261.14</ele>
        <time>2014-12-28T09:33:32Z</time>
      </trkpt>
      <trkpt lat="44.61592" lon="1.01242">
        <ele>261.14</ele>
        <time>2014-12-28T09:33:34Z</time>
      </trkpt>
      <trkpt lat="44.61582" lon="1.01233">
        <ele>261.62</ele>
        <time>2014-12-28T09:33:37Z</time>
      </trkpt>
      <trkpt lat="44.61547" lon="1.01204">
        <ele>264.5</ele>
        <time>2014-12-28T09:33:47Z</time>
      </trkpt>
      <trkpt lat="44.61498" lon="1.01178">
        <ele>264.5</ele>
        <time>2014-12-28T09:34:01Z</time>
      </trkpt>
      <trkpt lat="44.61464" lon="1.01159">
        <ele>262.1</ele>
        <time>2014-12-28T09:34:10Z</time>
      </trkpt>
      <trkpt lat="44.61447" lon="1.01154">
        <ele>262.58</ele>
        <time>2014-12-28T09:34:14Z</time>
      </trkpt>
      <trkpt lat="44.61439" lon="1.01152">
        <ele>262.1</ele>
        <time>2014-12-28T09:34:16Z</time>
      </trkpt>
      <trkpt lat="44.61406" lon="1.01143">
        <ele>261.14</ele>
        <time>2014-12-28T09:34:24Z</time>
      </trkpt>
      <trkpt lat="44.61402" lon="1.01141">
        <ele>261.14</ele>
        <time>2014-12-28T09:34:25Z</time>
      </trkpt>
      <trkpt lat="44.61381" lon="1.01127">
        <ele>260.17</ele>
        <time>2014-12-28T09:34:34Z</time>
      </trkpt>
      <trkpt lat="44.61348" lon="1.01119">
        <ele>261.62</ele>
        <time>2014-12-28T09:34:44Z</time>
      </trkpt>
      <trkpt lat="44.61333" lon="1.01111">
        <ele>263.06</ele>
        <time>2014-12-28T09:34:47Z</time>
      </trkpt>
      <trkpt lat="44.61303" lon="1.01092">
        <ele>264.5</ele>
        <time>2014-12-28T09:34:53Z</time>
      </trkpt>
      <trkpt lat="44.61267" lon="1.01073">
        <ele>264.98</ele>
        <time>2014-12-28T09:35:01Z</time>
      </trkpt>
      <trkpt lat="44.61232" lon="1.01077">
        <ele>266.42</ele>
        <time>2014-12-28T09:35:08Z</time>
      </trkpt>
      <trkpt lat="44.61183" lon="1.01069">
        <ele>267.86</ele>
        <time>2014-12-28T09:35:19Z</time>
      </trkpt>
      <trkpt lat="44.61177" lon="1.01041">
        <ele>267.38</ele>
        <time>2014-12-28T09:35:24Z</time>
      </trkpt>
      <trkpt lat="44.61179" lon="1.01028">
        <ele>266.42</ele>
        <time>2014-12-28T09:35:26Z</time>
      </trkpt>
      <trkpt lat="44.61177" lon="1.01001">
        <ele>264.98</ele>
        <time>2014-12-28T09:35:30Z</time>
      </trkpt>
      <trkpt lat="44.61168" lon="1.00975">
        <ele>263.06</ele>
        <time>2014-12-28T09:35:34Z</time>
      </trkpt>
      <trkpt lat="44.61154" lon="1.00953">
        <ele>262.58</ele>
        <time>2014-12-28T09:35:38Z</time>
      </trkpt>
      <trkpt lat="44.61109" lon="1.00939">
        <ele>261.62</ele>
        <time>2014-12-28T09:35:49Z</time>
      </trkpt>
      <trkpt lat="44.6109" lon="1.00938">
        <ele>262.1</ele>
        <time>2014-12-28T09:35:53Z</time>
      </trkpt>
      <trkpt lat="44.61081" lon="1.00939">
        <ele>261.62</ele>
        <time>2014-12-28T09:35:55Z</time>
      </trkpt>
      <trkpt lat="44.61068" lon="1.00941">
        <ele>261.62</ele>
        <time>2014-12-28T09:35:58Z</time>
      </trkpt>
      <trkpt lat="44.61058" lon="1.0094">
        <ele>262.1</ele>
        <time>2014-12-28T09:36:00Z</time>
      </trkpt>
      <trkpt lat="44.61045" lon="1.0094">
        <ele>262.58</ele>
        <time>2014-12-28T09:36:03Z</time>
      </trkpt>
      <trkpt lat="44.6103" lon="1.00938">
        <ele>263.06</ele>
        <time>2014-12-28T09:36:06Z</time>
      </trkpt>
      <trkpt lat="44.60988" lon="1.00936">
        <ele>260.65</ele>
        <time>2014-12-28T09:36:13Z</time>
      </trkpt>
      <trkpt lat="44.60961" lon="1.00932">
        <ele>260.17</ele>
        <time>2014-12-28T09:36:18Z</time>
      </trkpt>
      <trkpt lat="44.60955" lon="1.0091">
        <ele>254.41</ele>
        <time>2014-12-28T09:36:28Z</time>
      </trkpt>
      <trkpt lat="44.60955" lon="1.00905">
        <ele>253.93</ele>
        <time>2014-12-28T09:36:30Z</time>
      </trkpt>
      <trkpt lat="44.60954" lon="1.00871">
        <ele>255.37</ele>
        <time>2014-12-28T09:36:43Z</time>
      </trkpt>
      <trkpt lat="44.60949" lon="1.00838">
        <ele>255.37</ele>
        <time>2014-12-28T09:36:55Z</time>
      </trkpt>
      <trkpt lat="44.60949" lon="1.00785">
        <ele>256.81</ele>
        <time>2014-12-28T09:37:08Z</time>
      </trkpt>
      <trkpt lat="44.60957" lon="1.00738">
        <ele>255.85</ele>
        <time>2014-12-28T09:37:20Z</time>
      </trkpt>
      <trkpt lat="44.60954" lon="1.00713">
        <ele>255.85</ele>
        <time>2014-12-28T09:37:25Z</time>
      </trkpt>
      <trkpt lat="44.60946" lon="1.0067">
        <ele>255.85</ele>
        <time>2014-12-28T09:37:33Z</time>
      </trkpt>
      <trkpt lat="44.60942" lon="1.00658">
        <ele>255.37</ele>
        <time>2014-12-28T09:37:35Z</time>
      </trkpt>
      <trkpt lat="44.6093" lon="1.00635">
        <ele>255.37</ele>
        <time>2014-12-28T09:37:39Z</time>
      </trkpt>
      <trkpt lat="44.60902" lon="1.00597">
        <ele>254.41</ele>
        <time>2014-12-28T09:37:46Z</time>
      </trkpt>
      <trkpt lat="44.60842" lon="1.00513">
        <ele>252.48</ele>
        <time>2014-12-28T09:38:01Z</time>
      </trkpt>
      <trkpt lat="44.60826" lon="1.00492">
        <ele>252</ele>
        <time>2014-12-28T09:38:05Z</time>
      </trkpt>
      <trkpt lat="44.60794" lon="1.0045">
        <ele>249.6</ele>
        <time>2014-12-28T09:38:13Z</time>
      </trkpt>
      <trkpt lat="44.6075" lon="1.00378">
        <ele>250.56</ele>
        <time>2014-12-28T09:38:25Z</time>
      </trkpt>
      <trkpt lat="44.60738" lon="1.00356">
        <ele>251.52</ele>
        <time>2014-12-28T09:38:29Z</time>
      </trkpt>
      <trkpt lat="44.60719" lon="1.00329">
        <ele>253.93</ele>
        <time>2014-12-28T09:38:35Z</time>
      </trkpt>
      <trkpt lat="44.60681" lon="1.00275">
        <ele>254.41</ele>
        <time>2014-12-28T09:38:49Z</time>
      </trkpt>
      <trkpt lat="44.6067" lon="1.00258">
        <ele>253.44</ele>
        <time>2014-12-28T09:38:53Z</time>
      </trkpt>
      <trkpt lat="44.60623" lon="1.00195">
        <ele>251.04</ele>
        <time>2014-12-28T09:39:06Z</time>
      </trkpt>
      <trkpt lat="44.606" lon="1.00167">
        <ele>248.16</ele>
        <time>2014-12-28T09:39:11Z</time>
      </trkpt>
      <trkpt lat="44.6057" lon="1.00141">
        <ele>245.27</ele>
        <time>2014-12-28T09:39:16Z</time>
      </trkpt>
      <trkpt lat="44.60516" lon="1.00032">
        <ele>239.02</ele>
        <time>2014-12-28T09:39:26Z</time>
      </trkpt>
      <trkpt lat="44.60498" lon="0.99942">
        <ele>237.1</ele>
        <time>2014-12-28T09:39:33Z</time>
      </trkpt>
      <trkpt lat="44.60455" lon="0.99776">
        <ele>229.89</ele>
        <time>2014-12-28T09:39:46Z</time>
      </trkpt>
      <trkpt lat="44.60445" lon="0.99743">
        <ele>228.45</ele>
        <time>2014-12-28T09:39:50Z</time>
      </trkpt>
      <trkpt lat="44.60436" lon="0.99726">
        <ele>226.05</ele>
        <time>2014-12-28T09:39:59Z</time>
      </trkpt>
      <trkpt lat="44.60436" lon="0.99728">
        <ele>226.53</ele>
        <time>2014-12-28T09:40:23Z</time>
      </trkpt>
      <trkpt lat="44.60432" lon="0.99716">
        <ele>227.01</ele>
        <time>2014-12-28T09:40:28Z</time>
      </trkpt>
      <trkpt lat="44.6041" lon="0.9966">
        <ele>229.89</ele>
        <time>2014-12-28T09:40:40Z</time>
      </trkpt>
      <trkpt lat="44.60389" lon="0.99616">
        <ele>229.89</ele>
        <time>2014-12-28T09:40:50Z</time>
      </trkpt>
      <trkpt lat="44.60371" lon="0.99569">
        <ele>228.45</ele>
        <time>2014-12-28T09:40:57Z</time>
      </trkpt>
      <trkpt lat="44.60354" lon="0.99539">
        <ele>226.53</ele>
        <time>2014-12-28T09:41:01Z</time>
      </trkpt>
      <trkpt lat="44.60342" lon="0.99505">
        <ele>225.09</ele>
        <time>2014-12-28T09:41:05Z</time>
      </trkpt>
      <trkpt lat="44.60321" lon="0.99442">
        <ele>221.72</ele>
        <time>2014-12-28T09:41:13Z</time>
      </trkpt>
      <trkpt lat="44.60294" lon="0.99398">
        <ele>219.8</ele>
        <time>2014-12-28T09:41:19Z</time>
      </trkpt>
      <trkpt lat="44.6028" lon="0.99348">
        <ele>219.32</ele>
        <time>2014-12-28T09:41:25Z</time>
      </trkpt>
      <trkpt lat="44.60262" lon="0.99292">
        <ele>220.76</ele>
        <time>2014-12-28T09:41:33Z</time>
      </trkpt>
      <trkpt lat="44.60253" lon="0.99266">
        <ele>222.2</ele>
        <time>2014-12-28T09:41:37Z</time>
      </trkpt>
      <trkpt lat="44.60247" lon="0.99245">
        <ele>223.64</ele>
        <time>2014-12-28T09:41:40Z</time>
      </trkpt>
      <trkpt lat="44.60235" lon="0.99196">
        <ele>225.57</ele>
        <time>2014-12-28T09:41:46Z</time>
      </trkpt>
      <trkpt lat="44.60222" lon="0.99171">
        <ele>227.01</ele>
        <time>2014-12-28T09:41:50Z</time>
      </trkpt>
      <trkpt lat="44.60195" lon="0.99154">
        <ele>228.45</ele>
        <time>2014-12-28T09:41:57Z</time>
      </trkpt>
      <trkpt lat="44.60187" lon="0.99148">
        <ele>228.93</ele>
        <time>2014-12-28T09:41:59Z</time>
      </trkpt>
      <trkpt lat="44.60155" lon="0.99114">
        <ele>230.85</ele>
        <time>2014-12-28T09:42:07Z</time>
      </trkpt>
      <trkpt lat="44.60142" lon="0.99103">
        <ele>231.33</ele>
        <time>2014-12-28T09:42:10Z</time>
      </trkpt>
      <trkpt lat="44.60091" lon="0.99074">
        <ele>232.78</ele>
        <time>2014-12-28T09:42:23Z</time>
      </trkpt>
      <trkpt lat="44.60024" lon="0.99045">
        <ele>228.93</ele>
        <time>2014-12-28T09:42:37Z</time>
      </trkpt>
      <trkpt lat="44.60001" lon="0.9904">
        <ele>227.01</ele>
        <time>2014-12-28T09:42:46Z</time>
      </trkpt>
      <trkpt lat="44.6" lon="0.99039">
        <ele>227.01</ele>
        <time>2014-12-28T09:42:58Z</time>
      </trkpt>
      <trkpt lat="44.59987" lon="0.99034">
        <ele>227.49</ele>
        <time>2014-12-28T09:43:06Z</time>
      </trkpt>
      <trkpt lat="44.59977" lon="0.9903">
        <ele>227.01</ele>
        <time>2014-12-28T09:43:10Z</time>
      </trkpt>
      <trkpt lat="44.59969" lon="0.99015">
        <ele>227.01</ele>
        <time>2014-12-28T09:43:15Z</time>
      </trkpt>
      <trkpt lat="44.59983" lon="0.98962">
        <ele>223.16</ele>
        <time>2014-12-28T09:43:25Z</time>
      </trkpt>
      <trkpt lat="44.60001" lon="0.98902">
        <ele>217.88</ele>
        <time>2014-12-28T09:43:32Z</time>
      </trkpt>
      <trkpt lat="44.60003" lon="0.98848">
        <ele>214.51</ele>
        <time>2014-12-28T09:43:37Z</time>
      </trkpt>
      <trkpt lat="44.60007" lon="0.98786">
        <ele>210.67</ele>
        <time>2014-12-28T09:43:42Z</time>
      </trkpt>
      <trkpt lat="44.59996" lon="0.98712">
        <ele>205.86</ele>
        <time>2014-12-28T09:43:48Z</time>
      </trkpt>
      <trkpt lat="44.60001" lon="0.98658">
        <ele>202.49</ele>
        <time>2014-12-28T09:43:53Z</time>
      </trkpt>
      <trkpt lat="44.60021" lon="0.98594">
        <ele>197.69</ele>
        <time>2014-12-28T09:44:04Z</time>
      </trkpt>
      <trkpt lat="44.60023" lon="0.98589">
        <ele>197.21</ele>
        <time>2014-12-28T09:44:05Z</time>
      </trkpt>
      <trkpt lat="44.60027" lon="0.98579">
        <ele>196.25</ele>
        <time>2014-12-28T09:44:07Z</time>
      </trkpt>
      <trkpt lat="44.60032" lon="0.98566">
        <ele>194.8</ele>
        <time>2014-12-28T09:44:09Z</time>
      </trkpt>
      <trkpt lat="44.60047" lon="0.98512">
        <ele>190.96</ele>
        <time>2014-12-28T09:44:15Z</time>
      </trkpt>
      <trkpt lat="44.60063" lon="0.98479">
        <ele>189.52</ele>
        <time>2014-12-28T09:44:19Z</time>
      </trkpt>
      <trkpt lat="44.60077" lon="0.9844">
        <ele>189.04</ele>
        <time>2014-12-28T09:44:24Z</time>
      </trkpt>
      <trkpt lat="44.60088" lon="0.98339">
        <ele>185.19</ele>
        <time>2014-12-28T09:44:36Z</time>
      </trkpt>
      <trkpt lat="44.60089" lon="0.98323">
        <ele>186.15</ele>
        <time>2014-12-28T09:44:45Z</time>
      </trkpt>
      <trkpt lat="44.60088" lon="0.98324">
        <ele>187.59</ele>
        <time>2014-12-28T09:45:01Z</time>
      </trkpt>
      <trkpt lat="44.60088" lon="0.98327">
        <ele>187.59</ele>
        <time>2014-12-28T09:45:11Z</time>
      </trkpt>
      <trkpt lat="44.60089" lon="0.98325">
        <ele>187.11</ele>
        <time>2014-12-28T09:45:48Z</time>
      </trkpt>
      <trkpt lat="44.60089" lon="0.98326">
        <ele>186.63</ele>
        <time>2014-12-28T09:46:15Z</time>
      </trkpt>
      <trkpt lat="44.60089" lon="0.98326">
        <ele>186.15</ele>
        <time>2014-12-28T09:46:43Z</time>
      </trkpt>
      <trkpt lat="44.60087" lon="0.98324">
        <ele>186.15</ele>
        <time>2014-12-28T09:47:20Z</time>
      </trkpt>
      <trkpt lat="44.60087" lon="0.98323">
        <ele>186.63</ele>
        <time>2014-12-28T09:47:44Z</time>
      </trkpt>
      <trkpt lat="44.60088" lon="0.98323">
        <ele>187.11</ele>
        <time>2014-12-28T09:48:17Z</time>
      </trkpt>
      <trkpt lat="44.60089" lon="0.98323">
        <ele>188.08</ele>
        <time>2014-12-28T09:48:51Z</time>
      </trkpt>
      <trkpt lat="44.60088" lon="0.98323">
        <ele>190</ele>
        <time>2014-12-28T09:49:30Z</time>
      </trkpt>
      <trkpt lat="44.60088" lon="0.98323">
        <ele>189.52</ele>
        <time>2014-12-28T09:50:03Z</time>
      </trkpt>
      <trkpt lat="44.60088" lon="0.98324">
        <ele>190</ele>
        <time>2014-12-28T09:50:45Z</time>
      </trkpt>
      <trkpt lat="44.60088" lon="0.98324">
        <ele>189.04</ele>
        <time>2014-12-28T09:51:21Z</time>
      </trkpt>
      <trkpt lat="44.60087" lon="0.98325">
        <ele>189.04</ele>
        <time>2014-12-28T09:51:44Z</time>
      </trkpt>
      <trkpt lat="44.60087" lon="0.98325">
        <ele>189.52</ele>
        <time>2014-12-28T09:51:58Z</time>
      </trkpt>
      <trkpt lat="44.60091" lon="0.983">
        <ele>188.56</ele>
        <time>2014-12-28T09:52:06Z</time>
      </trkpt>
      <trkpt lat="44.60102" lon="0.98269">
        <ele>186.15</ele>
        <time>2014-12-28T09:52:14Z</time>
      </trkpt>
      <trkpt lat="44.60116" lon="0.98256">
        <ele>185.19</ele>
        <time>2014-12-28T09:52:18Z</time>
      </trkpt>
      <trkpt lat="44.60131" lon="0.9825">
        <ele>184.71</ele>
        <time>2014-12-28T09:52:21Z</time>
      </trkpt>
      <trkpt lat="44.6017" lon="0.98194">
        <ele>182.31</ele>
        <time>2014-12-28T09:52:30Z</time>
      </trkpt>
      <trkpt lat="44.60156" lon="0.98133">
        <ele>181.83</ele>
        <time>2014-12-28T09:52:36Z</time>
      </trkpt>
      <trkpt lat="44.60152" lon="0.98082">
        <ele>180.38</ele>
        <time>2014-12-28T09:52:41Z</time>
      </trkpt>
      <trkpt lat="44.60158" lon="0.98061">
        <ele>178.94</ele>
        <time>2014-12-28T09:52:43Z</time>
      </trkpt>
      <trkpt lat="44.60161" lon="0.97994">
        <ele>174.14</ele>
        <time>2014-12-28T09:52:49Z</time>
      </trkpt>
      <trkpt lat="44.60148" lon="0.97967">
        <ele>168.85</ele>
        <time>2014-12-28T09:52:56Z</time>
      </trkpt>
      <trkpt lat="44.60134" lon="0.9797">
        <ele>165.48</ele>
        <time>2014-12-28T09:52:59Z</time>
      </trkpt>
      <trkpt lat="44.60093" lon="0.97959">
        <ele>164.52</ele>
        <time>2014-12-28T09:53:09Z</time>
      </trkpt>
      <trkpt lat="44.60093" lon="0.97948">
        <ele>164.52</ele>
        <time>2014-12-28T09:53:18Z</time>
      </trkpt>
      <trkpt lat="44.60094" lon="0.97947">
        <ele>164.52</ele>
        <time>2014-12-28T09:53:19Z</time>
      </trkpt>
      <trkpt lat="44.60108" lon="0.97917">
        <ele>164.52</ele>
        <time>2014-12-28T09:53:29Z</time>
      </trkpt>
      <trkpt lat="44.60115" lon="0.97885">
        <ele>164.52</ele>
        <time>2014-12-28T09:53:34Z</time>
      </trkpt>
      <trkpt lat="44.60129" lon="0.97863">
        <ele>161.64</ele>
        <time>2014-12-28T09:53:38Z</time>
      </trkpt>
      <trkpt lat="44.60149" lon="0.97814">
        <ele>159.72</ele>
        <time>2014-12-28T09:53:49Z</time>
      </trkpt>
      <trkpt lat="44.60174" lon="0.97786">
        <ele>160.68</ele>
        <time>2014-12-28T09:54:00Z</time>
      </trkpt>
      <trkpt lat="44.60192" lon="0.97752">
        <ele>158.75</ele>
        <time>2014-12-28T09:54:11Z</time>
      </trkpt>
      <trkpt lat="44.6019" lon="0.97735">
        <ele>157.31</ele>
        <time>2014-12-28T09:54:15Z</time>
      </trkpt>
      <trkpt lat="44.60184" lon="0.97685">
        <ele>151.06</ele>
        <time>2014-12-28T09:54:27Z</time>
      </trkpt>
      <trkpt lat="44.60178" lon="0.97622">
        <ele>148.18</ele>
        <time>2014-12-28T09:54:39Z</time>
      </trkpt>
      <trkpt lat="44.6018" lon="0.97568">
        <ele>150.58</ele>
        <time>2014-12-28T09:54:49Z</time>
      </trkpt>
      <trkpt lat="44.6019" lon="0.975">
        <ele>153.47</ele>
        <time>2014-12-28T09:55:04Z</time>
      </trkpt>
      <trkpt lat="44.60205" lon="0.97435">
        <ele>153.95</ele>
        <time>2014-12-28T09:55:18Z</time>
      </trkpt>
      <trkpt lat="44.60206" lon="0.9743">
        <ele>153.47</ele>
        <time>2014-12-28T09:55:19Z</time>
      </trkpt>
      <trkpt lat="44.60206" lon="0.97358">
        <ele>151.54</ele>
        <time>2014-12-28T09:55:32Z</time>
      </trkpt>
      <trkpt lat="44.60207" lon="0.97337">
        <ele>150.58</ele>
        <time>2014-12-28T09:55:36Z</time>
      </trkpt>
      <trkpt lat="44.60192" lon="0.97305">
        <ele>148.18</ele>
        <time>2014-12-28T09:55:48Z</time>
      </trkpt>
      <trkpt lat="44.60186" lon="0.973">
        <ele>148.66</ele>
        <time>2014-12-28T09:55:58Z</time>
      </trkpt>
      <trkpt lat="44.6018" lon="0.97296">
        <ele>148.66</ele>
        <time>2014-12-28T09:56:00Z</time>
      </trkpt>
      <trkpt lat="44.6017" lon="0.97287">
        <ele>147.7</ele>
        <time>2014-12-28T09:56:03Z</time>
      </trkpt>
      <trkpt lat="44.60154" lon="0.97274">
        <ele>146.26</ele>
        <time>2014-12-28T09:56:07Z</time>
      </trkpt>
      <trkpt lat="44.60103" lon="0.97209">
        <ele>140.97</ele>
        <time>2014-12-28T09:56:20Z</time>
      </trkpt>
      <trkpt lat="44.60096" lon="0.97199">
        <ele>140.49</ele>
        <time>2014-12-28T09:56:22Z</time>
      </trkpt>
      <trkpt lat="44.60091" lon="0.97188">
        <ele>140.01</ele>
        <time>2014-12-28T09:56:24Z</time>
      </trkpt>
      <trkpt lat="44.60079" lon="0.9717">
        <ele>139.05</ele>
        <time>2014-12-28T09:56:28Z</time>
      </trkpt>
      <trkpt lat="44.60068" lon="0.97165">
        <ele>138.57</ele>
        <time>2014-12-28T09:56:31Z</time>
      </trkpt>
      <trkpt lat="44.60039" lon="0.97193">
        <ele>138.57</ele>
        <time>2014-12-28T09:56:41Z</time>
      </trkpt>
      <trkpt lat="44.60024" lon="0.97192">
        <ele>138.09</ele>
        <time>2014-12-28T09:56:45Z</time>
      </trkpt>
      <trkpt lat="44.6001" lon="0.97184">
        <ele>136.64</ele>
        <time>2014-12-28T09:56:48Z</time>
      </trkpt>
      <trkpt lat="44.59995" lon="0.97171">
        <ele>135.2</ele>
        <time>2014-12-28T09:56:52Z</time>
      </trkpt>
      <trkpt lat="44.59975" lon="0.97161">
        <ele>134.24</ele>
        <time>2014-12-28T09:56:57Z</time>
      </trkpt>
      <trkpt lat="44.59963" lon="0.97151">
        <ele>134.24</ele>
        <time>2014-12-28T09:57:00Z</time>
      </trkpt>
      <trkpt lat="44.59952" lon="0.97131">
        <ele>133.76</ele>
        <time>2014-12-28T09:57:04Z</time>
      </trkpt>
      <trkpt lat="44.59946" lon="0.97108">
        <ele>133.28</ele>
        <time>2014-12-28T09:57:07Z</time>
      </trkpt>
      <trkpt lat="44.59942" lon="0.97073">
        <ele>133.28</ele>
        <time>2014-12-28T09:57:13Z</time>
      </trkpt>
      <trkpt lat="44.59943" lon="0.97066">
        <ele>136.16</ele>
        <time>2014-12-28T09:57:25Z</time>
      </trkpt>
      <trkpt lat="44.59943" lon="0.97064">
        <ele>136.64</ele>
        <time>2014-12-28T09:57:26Z</time>
      </trkpt>
      <trkpt lat="44.5994" lon="0.97052">
        <ele>138.09</ele>
        <time>2014-12-28T09:57:31Z</time>
      </trkpt>
      <trkpt lat="44.59938" lon="0.97039">
        <ele>140.49</ele>
        <time>2014-12-28T09:57:39Z</time>
      </trkpt>
      <trkpt lat="44.59932" lon="0.97031">
        <ele>141.45</ele>
        <time>2014-12-28T09:57:46Z</time>
      </trkpt>
      <trkpt lat="44.59924" lon="0.97027">
        <ele>143.37</ele>
        <time>2014-12-28T09:57:52Z</time>
      </trkpt>
      <trkpt lat="44.59921" lon="0.97021">
        <ele>145.3</ele>
        <time>2014-12-28T09:58:04Z</time>
      </trkpt>
      <trkpt lat="44.59919" lon="0.97021">
        <ele>144.82</ele>
        <time>2014-12-28T09:58:20Z</time>
      </trkpt>
      <trkpt lat="44.59912" lon="0.97017">
        <ele>147.7</ele>
        <time>2014-12-28T09:58:36Z</time>
      </trkpt>
      <trkpt lat="44.59902" lon="0.97006">
        <ele>152.99</ele>
        <time>2014-12-28T09:58:55Z</time>
      </trkpt>
      <trkpt lat="44.59893" lon="0.96997">
        <ele>154.43</ele>
        <time>2014-12-28T09:59:12Z</time>
      </trkpt>
      <trkpt lat="44.59889" lon="0.96998">
        <ele>155.87</ele>
        <time>2014-12-28T09:59:26Z</time>
      </trkpt>
      <trkpt lat="44.59888" lon="0.96998">
        <ele>155.39</ele>
        <time>2014-12-28T09:59:41Z</time>
      </trkpt>
      <trkpt lat="44.59887" lon="0.96997">
        <ele>156.83</ele>
        <time>2014-12-28T09:59:51Z</time>
      </trkpt>
      <trkpt lat="44.59883" lon="0.96998">
        <ele>156.83</ele>
        <time>2014-12-28T09:59:55Z</time>
      </trkpt>
      <trkpt lat="44.59863" lon="0.96995">
        <ele>161.64</ele>
        <time>2014-12-28T10:00:08Z</time>
      </trkpt>
      <trkpt lat="44.59864" lon="0.96982">
        <ele>164.04</ele>
        <time>2014-12-28T10:00:15Z</time>
      </trkpt>
      <trkpt lat="44.59857" lon="0.9696">
        <ele>165.96</ele>
        <time>2014-12-28T10:00:24Z</time>
      </trkpt>
      <trkpt lat="44.59836" lon="0.96932">
        <ele>166.45</ele>
        <time>2014-12-28T10:00:32Z</time>
      </trkpt>
      <trkpt lat="44.59822" lon="0.96912">
        <ele>165.96</ele>
        <time>2014-12-28T10:00:37Z</time>
      </trkpt>
      <trkpt lat="44.59781" lon="0.9686">
        <ele>165</ele>
        <time>2014-12-28T10:00:51Z</time>
      </trkpt>
      <trkpt lat="44.59758" lon="0.96843">
        <ele>165.96</ele>
        <time>2014-12-28T10:00:59Z</time>
      </trkpt>
      <trkpt lat="44.59747" lon="0.96846">
        <ele>165.48</ele>
        <time>2014-12-28T10:01:12Z</time>
      </trkpt>
      <trkpt lat="44.59746" lon="0.96844">
        <ele>165.48</ele>
        <time>2014-12-28T10:01:44Z</time>
      </trkpt>
      <trkpt lat="44.59744" lon="0.96847">
        <ele>165.96</ele>
        <time>2014-12-28T10:02:15Z</time>
      </trkpt>
      <trkpt lat="44.59744" lon="0.96846">
        <ele>165.48</ele>
        <time>2014-12-28T10:02:23Z</time>
      </trkpt>
      <trkpt lat="44.59732" lon="0.96844">
        <ele>164.52</ele>
        <time>2014-12-28T10:02:27Z</time>
      </trkpt>
      <trkpt lat="44.59723" lon="0.96844">
        <ele>164.04</ele>
        <time>2014-12-28T10:02:29Z</time>
      </trkpt>
      <trkpt lat="44.59713" lon="0.96843">
        <ele>163.08</ele>
        <time>2014-12-28T10:02:31Z</time>
      </trkpt>
      <trkpt lat="44.59688" lon="0.96808">
        <ele>163.56</ele>
        <time>2014-12-28T10:02:39Z</time>
      </trkpt>
      <trkpt lat="44.59682" lon="0.96791">
        <ele>164.04</ele>
        <time>2014-12-28T10:02:42Z</time>
      </trkpt>
      <trkpt lat="44.59646" lon="0.96748">
        <ele>164.04</ele>
        <time>2014-12-28T10:02:54Z</time>
      </trkpt>
      <trkpt lat="44.59637" lon="0.96743">
        <ele>163.56</ele>
        <time>2014-12-28T10:02:56Z</time>
      </trkpt>
      <trkpt lat="44.59621" lon="0.96718">
        <ele>162.6</ele>
        <time>2014-12-28T10:03:01Z</time>
      </trkpt>
      <trkpt lat="44.59614" lon="0.9669">
        <ele>159.72</ele>
        <time>2014-12-28T10:03:05Z</time>
      </trkpt>
      <trkpt lat="44.59601" lon="0.96649">
        <ele>155.39</ele>
        <time>2014-12-28T10:03:12Z</time>
      </trkpt>
      <trkpt lat="44.59625" lon="0.96647">
        <ele>148.18</ele>
        <time>2014-12-28T10:03:20Z</time>
      </trkpt>
      <trkpt lat="44.59628" lon="0.96643">
        <ele>147.7</ele>
        <time>2014-12-28T10:03:21Z</time>
      </trkpt>
      <trkpt lat="44.59635" lon="0.96619">
        <ele>143.85</ele>
        <time>2014-12-28T10:03:26Z</time>
      </trkpt>
      <trkpt lat="44.59654" lon="0.96602">
        <ele>138.09</ele>
        <time>2014-12-28T10:03:31Z</time>
      </trkpt>
      <trkpt lat="44.59668" lon="0.966">
        <ele>135.2</ele>
        <time>2014-12-28T10:03:34Z</time>
      </trkpt>
      <trkpt lat="44.59676" lon="0.96599">
        <ele>134.24</ele>
        <time>2014-12-28T10:03:36Z</time>
      </trkpt>
      <trkpt lat="44.59694" lon="0.96595">
        <ele>130.88</ele>
        <time>2014-12-28T10:03:44Z</time>
      </trkpt>
      <trkpt lat="44.59683" lon="0.96564">
        <ele>128.95</ele>
        <time>2014-12-28T10:03:49Z</time>
      </trkpt>
      <trkpt lat="44.59684" lon="0.96546">
        <ele>127.99</ele>
        <time>2014-12-28T10:03:51Z</time>
      </trkpt>
      <trkpt lat="44.5967" lon="0.96511">
        <ele>126.07</ele>
        <time>2014-12-28T10:03:56Z</time>
      </trkpt>
      <trkpt lat="44.59611" lon="0.9647">
        <ele>128.47</ele>
        <time>2014-12-28T10:04:09Z</time>
      </trkpt>
      <trkpt lat="44.59574" lon="0.9644">
        <ele>135.2</ele>
        <time>2014-12-28T10:04:21Z</time>
      </trkpt>
      <trkpt lat="44.59536" lon="0.96418">
        <ele>137.13</ele>
        <time>2014-12-28T10:04:32Z</time>
      </trkpt>
      <trkpt lat="44.59496" lon="0.96403">
        <ele>143.37</ele>
        <time>2014-12-28T10:04:44Z</time>
      </trkpt>
      <trkpt lat="44.59461" lon="0.96397">
        <ele>142.89</ele>
        <time>2014-12-28T10:04:58Z</time>
      </trkpt>
      <trkpt lat="44.59425" lon="0.96398">
        <ele>144.82</ele>
        <time>2014-12-28T10:05:13Z</time>
      </trkpt>
      <trkpt lat="44.59413" lon="0.96397">
        <ele>146.74</ele>
        <time>2014-12-28T10:05:19Z</time>
      </trkpt>
      <trkpt lat="44.59408" lon="0.96381">
        <ele>145.78</ele>
        <time>2014-12-28T10:05:24Z</time>
      </trkpt>
      <trkpt lat="44.59408" lon="0.96375">
        <ele>145.3</ele>
        <time>2014-12-28T10:05:26Z</time>
      </trkpt>
      <trkpt lat="44.59404" lon="0.96371">
        <ele>145.3</ele>
        <time>2014-12-28T10:05:38Z</time>
      </trkpt>
      <trkpt lat="44.59404" lon="0.9637">
        <ele>147.22</ele>
        <time>2014-12-28T10:05:50Z</time>
      </trkpt>
      <trkpt lat="44.5938" lon="0.96389">
        <ele>142.89</ele>
        <time>2014-12-28T10:05:58Z</time>
      </trkpt>
      <trkpt lat="44.59352" lon="0.96389">
        <ele>137.13</ele>
        <time>2014-12-28T10:06:07Z</time>
      </trkpt>
      <trkpt lat="44.59346" lon="0.96386">
        <ele>135.68</ele>
        <time>2014-12-28T10:06:17Z</time>
      </trkpt>
      <trkpt lat="44.59347" lon="0.96386">
        <ele>134.72</ele>
        <time>2014-12-28T10:06:21Z</time>
      </trkpt>
      <trkpt lat="44.59352" lon="0.96376">
        <ele>134.72</ele>
        <time>2014-12-28T10:06:25Z</time>
      </trkpt>
      <trkpt lat="44.59379" lon="0.96312">
        <ele>130.4</ele>
        <time>2014-12-28T10:06:35Z</time>
      </trkpt>
      <trkpt lat="44.5938" lon="0.96307">
        <ele>129.92</ele>
        <time>2014-12-28T10:06:36Z</time>
      </trkpt>
      <trkpt lat="44.59365" lon="0.96307">
        <ele>127.99</ele>
        <time>2014-12-28T10:06:43Z</time>
      </trkpt>
      <trkpt lat="44.59353" lon="0.96326">
        <ele>127.51</ele>
        <time>2014-12-28T10:06:47Z</time>
      </trkpt>
      <trkpt lat="44.59321" lon="0.96375">
        <ele>127.03</ele>
        <time>2014-12-28T10:06:58Z</time>
      </trkpt>
      <trkpt lat="44.5928" lon="0.96437">
        <ele>124.63</ele>
        <time>2014-12-28T10:07:12Z</time>
      </trkpt>
      <trkpt lat="44.59248" lon="0.96437">
        <ele>123.67</ele>
        <time>2014-12-28T10:07:19Z</time>
      </trkpt>
      <trkpt lat="44.59224" lon="0.96431">
        <ele>124.63</ele>
        <time>2014-12-28T10:07:26Z</time>
      </trkpt>
      <trkpt lat="44.59215" lon="0.96408">
        <ele>124.15</ele>
        <time>2014-12-28T10:07:35Z</time>
      </trkpt>
      <trkpt lat="44.59205" lon="0.96401">
        <ele>124.63</ele>
        <time>2014-12-28T10:07:42Z</time>
      </trkpt>
      <trkpt lat="44.59193" lon="0.9642">
        <ele>127.99</ele>
        <time>2014-12-28T10:07:54Z</time>
      </trkpt>
      <trkpt lat="44.59191" lon="0.96422">
        <ele>128.95</ele>
        <time>2014-12-28T10:07:56Z</time>
      </trkpt>
      <trkpt lat="44.59182" lon="0.96434">
        <ele>131.84</ele>
        <time>2014-12-28T10:08:04Z</time>
      </trkpt>
      <trkpt lat="44.59177" lon="0.96439">
        <ele>133.76</ele>
        <time>2014-12-28T10:08:08Z</time>
      </trkpt>
      <trkpt lat="44.59163" lon="0.96455">
        <ele>138.09</ele>
        <time>2014-12-28T10:08:20Z</time>
      </trkpt>
      <trkpt lat="44.59148" lon="0.96468">
        <ele>142.41</ele>
        <time>2014-12-28T10:08:32Z</time>
      </trkpt>
      <trkpt lat="44.59131" lon="0.96481">
        <ele>143.85</ele>
        <time>2014-12-28T10:08:46Z</time>
      </trkpt>
      <trkpt lat="44.59127" lon="0.96485">
        <ele>144.34</ele>
        <time>2014-12-28T10:08:49Z</time>
      </trkpt>
      <trkpt lat="44.59111" lon="0.965">
        <ele>146.26</ele>
        <time>2014-12-28T10:09:02Z</time>
      </trkpt>
      <trkpt lat="44.59096" lon="0.9651">
        <ele>148.66</ele>
        <time>2014-12-28T10:09:14Z</time>
      </trkpt>
      <trkpt lat="44.59076" lon="0.96525">
        <ele>152.03</ele>
        <time>2014-12-28T10:09:29Z</time>
      </trkpt>
      <trkpt lat="44.59054" lon="0.96539">
        <ele>156.83</ele>
        <time>2014-12-28T10:09:44Z</time>
      </trkpt>
      <trkpt lat="44.59025" lon="0.9654">
        <ele>160.2</ele>
        <time>2014-12-28T10:10:01Z</time>
      </trkpt>
      <trkpt lat="44.59002" lon="0.96536">
        <ele>163.08</ele>
        <time>2014-12-28T10:10:15Z</time>
      </trkpt>
      <trkpt lat="44.58978" lon="0.96523">
        <ele>166.93</ele>
        <time>2014-12-28T10:10:31Z</time>
      </trkpt>
      <trkpt lat="44.58963" lon="0.96515">
        <ele>169.33</ele>
        <time>2014-12-28T10:10:44Z</time>
      </trkpt>
      <trkpt lat="44.58965" lon="0.96516">
        <ele>167.89</ele>
        <time>2014-12-28T10:11:10Z</time>
      </trkpt>
      <trkpt lat="44.58965" lon="0.96515">
        <ele>166.93</ele>
        <time>2014-12-28T10:11:39Z</time>
      </trkpt>
      <trkpt lat="44.5895" lon="0.96517">
        <ele>165</ele>
        <time>2014-12-28T10:11:47Z</time>
      </trkpt>
      <trkpt lat="44.58931" lon="0.96495">
        <ele>163.08</ele>
        <time>2014-12-28T10:11:56Z</time>
      </trkpt>
      <trkpt lat="44.58915" lon="0.96445">
        <ele>163.08</ele>
        <time>2014-12-28T10:12:09Z</time>
      </trkpt>
      <trkpt lat="44.58905" lon="0.96411">
        <ele>162.6</ele>
        <time>2014-12-28T10:12:17Z</time>
      </trkpt>
      <trkpt lat="44.58895" lon="0.96393">
        <ele>161.64</ele>
        <time>2014-12-28T10:12:26Z</time>
      </trkpt>
      <trkpt lat="44.5889" lon="0.96381">
        <ele>162.6</ele>
        <time>2014-12-28T10:12:31Z</time>
      </trkpt>
      <trkpt lat="44.58871" lon="0.96341">
        <ele>165.96</ele>
        <time>2014-12-28T10:12:46Z</time>
      </trkpt>
      <trkpt lat="44.58861" lon="0.96323">
        <ele>168.85</ele>
        <time>2014-12-28T10:12:52Z</time>
      </trkpt>
      <trkpt lat="44.5883" lon="0.963">
        <ele>176.54</ele>
        <time>2014-12-28T10:13:04Z</time>
      </trkpt>
      <trkpt lat="44.58795" lon="0.96297">
        <ele>178.94</ele>
        <time>2014-12-28T10:13:16Z</time>
      </trkpt>
      <trkpt lat="44.58758" lon="0.96294">
        <ele>182.79</ele>
        <time>2014-12-28T10:13:29Z</time>
      </trkpt>
      <trkpt lat="44.58722" lon="0.96285">
        <ele>183.75</ele>
        <time>2014-12-28T10:13:41Z</time>
      </trkpt>
      <trkpt lat="44.58684" lon="0.96265">
        <ele>185.19</ele>
        <time>2014-12-28T10:13:57Z</time>
      </trkpt>
      <trkpt lat="44.58657" lon="0.96229">
        <ele>187.11</ele>
        <time>2014-12-28T10:14:13Z</time>
      </trkpt>
      <trkpt lat="44.58645" lon="0.96202">
        <ele>187.59</ele>
        <time>2014-12-28T10:14:25Z</time>
      </trkpt>
      <trkpt lat="44.58637" lon="0.96192">
        <ele>188.08</ele>
        <time>2014-12-28T10:14:32Z</time>
      </trkpt>
      <trkpt lat="44.58626" lon="0.9618">
        <ele>190.96</ele>
        <time>2014-12-28T10:14:42Z</time>
      </trkpt>
      <trkpt lat="44.58619" lon="0.96172">
        <ele>193.36</ele>
        <time>2014-12-28T10:14:53Z</time>
      </trkpt>
      <trkpt lat="44.58618" lon="0.96172">
        <ele>194.8</ele>
        <time>2014-12-28T10:14:59Z</time>
      </trkpt>
      <trkpt lat="44.58608" lon="0.96163">
        <ele>200.57</ele>
        <time>2014-12-28T10:15:15Z</time>
      </trkpt>
      <trkpt lat="44.58597" lon="0.96155">
        <ele>203.94</ele>
        <time>2014-12-28T10:15:29Z</time>
      </trkpt>
      <trkpt lat="44.58594" lon="0.96152">
        <ele>203.94</ele>
        <time>2014-12-28T10:15:34Z</time>
      </trkpt>
      <trkpt lat="44.58583" lon="0.96141">
        <ele>202.01</ele>
        <time>2014-12-28T10:15:50Z</time>
      </trkpt>
      <trkpt lat="44.58579" lon="0.96138">
        <ele>201.05</ele>
        <time>2014-12-28T10:16:07Z</time>
      </trkpt>
      <trkpt lat="44.58573" lon="0.96135">
        <ele>199.61</ele>
        <time>2014-12-28T10:16:29Z</time>
      </trkpt>
      <trkpt lat="44.58552" lon="0.96124">
        <ele>201.05</ele>
        <time>2014-12-28T10:16:43Z</time>
      </trkpt>
      <trkpt lat="44.58525" lon="0.96131">
        <ele>202.01</ele>
        <time>2014-12-28T10:17:00Z</time>
      </trkpt>
      <trkpt lat="44.58519" lon="0.96136">
        <ele>199.61</ele>
        <time>2014-12-28T10:17:06Z</time>
      </trkpt>
      <trkpt lat="44.58518" lon="0.96139">
        <ele>199.13</ele>
        <time>2014-12-28T10:17:08Z</time>
      </trkpt>
      <trkpt lat="44.58518" lon="0.96145">
        <ele>201.53</ele>
        <time>2014-12-28T10:17:21Z</time>
      </trkpt>
      <trkpt lat="44.58518" lon="0.96146">
        <ele>200.57</ele>
        <time>2014-12-28T10:17:34Z</time>
      </trkpt>
      <trkpt lat="44.58518" lon="0.96144">
        <ele>201.53</ele>
        <time>2014-12-28T10:17:58Z</time>
      </trkpt>
      <trkpt lat="44.58514" lon="0.96146">
        <ele>202.98</ele>
        <time>2014-12-28T10:18:16Z</time>
      </trkpt>
      <trkpt lat="44.58503" lon="0.96145">
        <ele>203.94</ele>
        <time>2014-12-28T10:18:31Z</time>
      </trkpt>
      <trkpt lat="44.58501" lon="0.96142">
        <ele>204.9</ele>
        <time>2014-12-28T10:18:43Z</time>
      </trkpt>
      <trkpt lat="44.58501" lon="0.96136">
        <ele>207.3</ele>
        <time>2014-12-28T10:18:56Z</time>
      </trkpt>
      <trkpt lat="44.58502" lon="0.96135">
        <ele>207.78</ele>
        <time>2014-12-28T10:19:02Z</time>
      </trkpt>
      <trkpt lat="44.58495" lon="0.96141">
        <ele>207.3</ele>
        <time>2014-12-28T10:19:07Z</time>
      </trkpt>
      <trkpt lat="44.58488" lon="0.9614">
        <ele>210.67</ele>
        <time>2014-12-28T10:19:19Z</time>
      </trkpt>
      <trkpt lat="44.58488" lon="0.9614">
        <ele>210.67</ele>
        <time>2014-12-28T10:19:20Z</time>
      </trkpt>
      <trkpt lat="44.58482" lon="0.96137">
        <ele>211.63</ele>
        <time>2014-12-28T10:19:33Z</time>
      </trkpt>
      <trkpt lat="44.58481" lon="0.96143">
        <ele>216.43</ele>
        <time>2014-12-28T10:19:45Z</time>
      </trkpt>
      <trkpt lat="44.58479" lon="0.96153">
        <ele>218.36</ele>
        <time>2014-12-28T10:19:51Z</time>
      </trkpt>
      <trkpt lat="44.58473" lon="0.96174">
        <ele>219.8</ele>
        <time>2014-12-28T10:20:02Z</time>
      </trkpt>
      <trkpt lat="44.58465" lon="0.9619">
        <ele>219.32</ele>
        <time>2014-12-28T10:20:16Z</time>
      </trkpt>
      <trkpt lat="44.58464" lon="0.96192">
        <ele>218.84</ele>
        <time>2014-12-28T10:20:17Z</time>
      </trkpt>
      <trkpt lat="44.58462" lon="0.96195">
        <ele>218.36</ele>
        <time>2014-12-28T10:20:19Z</time>
      </trkpt>
      <trkpt lat="44.58458" lon="0.96203">
        <ele>217.88</ele>
        <time>2014-12-28T10:20:23Z</time>
      </trkpt>
      <trkpt lat="44.58445" lon="0.96218">
        <ele>219.32</ele>
        <time>2014-12-28T10:20:33Z</time>
      </trkpt>
      <trkpt lat="44.58418" lon="0.96252">
        <ele>223.64</ele>
        <time>2014-12-28T10:20:47Z</time>
      </trkpt>
      <trkpt lat="44.58397" lon="0.9629">
        <ele>223.64</ele>
        <time>2014-12-28T10:20:56Z</time>
      </trkpt>
      <trkpt lat="44.5838" lon="0.96335">
        <ele>224.61</ele>
        <time>2014-12-28T10:21:07Z</time>
      </trkpt>
      <trkpt lat="44.58374" lon="0.96365">
        <ele>221.24</ele>
        <time>2014-12-28T10:21:13Z</time>
      </trkpt>
      <trkpt lat="44.58387" lon="0.96407">
        <ele>221.72</ele>
        <time>2014-12-28T10:21:24Z</time>
      </trkpt>
      <trkpt lat="44.58401" lon="0.96434">
        <ele>223.16</ele>
        <time>2014-12-28T10:21:35Z</time>
      </trkpt>
      <trkpt lat="44.58414" lon="0.96454">
        <ele>223.16</ele>
        <time>2014-12-28T10:21:46Z</time>
      </trkpt>
      <trkpt lat="44.58435" lon="0.96472">
        <ele>220.28</ele>
        <time>2014-12-28T10:21:53Z</time>
      </trkpt>
      <trkpt lat="44.5846" lon="0.96482">
        <ele>215.47</ele>
        <time>2014-12-28T10:22:02Z</time>
      </trkpt>
      <trkpt lat="44.58487" lon="0.96473">
        <ele>213.55</ele>
        <time>2014-12-28T10:22:14Z</time>
      </trkpt>
      <trkpt lat="44.58492" lon="0.96461">
        <ele>211.63</ele>
        <time>2014-12-28T10:22:18Z</time>
      </trkpt>
      <trkpt lat="44.58488" lon="0.96425">
        <ele>205.38</ele>
        <time>2014-12-28T10:22:29Z</time>
      </trkpt>
      <trkpt lat="44.58473" lon="0.96364">
        <ele>199.13</ele>
        <time>2014-12-28T10:22:38Z</time>
      </trkpt>
      <trkpt lat="44.5846" lon="0.9632">
        <ele>195.28</ele>
        <time>2014-12-28T10:22:43Z</time>
      </trkpt>
      <trkpt lat="44.58473" lon="0.96291">
        <ele>193.36</ele>
        <time>2014-12-28T10:22:48Z</time>
      </trkpt>
      <trkpt lat="44.58507" lon="0.96285">
        <ele>190.48</ele>
        <time>2014-12-28T10:22:53Z</time>
      </trkpt>
      <trkpt lat="44.58566" lon="0.96277">
        <ele>185.67</ele>
        <time>2014-12-28T10:23:02Z</time>
      </trkpt>
      <trkpt lat="44.58572" lon="0.96272">
        <ele>184.71</ele>
        <time>2014-12-28T10:23:03Z</time>
      </trkpt>
      <trkpt lat="44.58597" lon="0.96248">
        <ele>180.38</ele>
        <time>2014-12-28T10:23:08Z</time>
      </trkpt>
      <trkpt lat="44.58603" lon="0.96256">
        <ele>178.46</ele>
        <time>2014-12-28T10:23:12Z</time>
      </trkpt>
      <trkpt lat="44.58587" lon="0.96317">
        <ele>175.58</ele>
        <time>2014-12-28T10:23:21Z</time>
      </trkpt>
      <trkpt lat="44.58583" lon="0.96354">
        <ele>176.06</ele>
        <time>2014-12-28T10:23:26Z</time>
      </trkpt>
      <trkpt lat="44.58588" lon="0.96381">
        <ele>177.98</ele>
        <time>2014-12-28T10:23:30Z</time>
      </trkpt>
      <trkpt lat="44.58608" lon="0.96441">
        <ele>182.31</ele>
        <time>2014-12-28T10:23:44Z</time>
      </trkpt>
      <trkpt lat="44.58609" lon="0.96444">
        <ele>181.83</ele>
        <time>2014-12-28T10:23:58Z</time>
      </trkpt>
      <trkpt lat="44.58608" lon="0.96456">
        <ele>182.31</ele>
        <time>2014-12-28T10:24:09Z</time>
      </trkpt>
      <trkpt lat="44.58608" lon="0.96478">
        <ele>182.79</ele>
        <time>2014-12-28T10:24:19Z</time>
      </trkpt>
      <trkpt lat="44.58609" lon="0.96489">
        <ele>181.83</ele>
        <time>2014-12-28T10:24:21Z</time>
      </trkpt>
      <trkpt lat="44.58607" lon="0.96508">
        <ele>179.9</ele>
        <time>2014-12-28T10:24:24Z</time>
      </trkpt>
      <trkpt lat="44.58585" lon="0.96556">
        <ele>176.54</ele>
        <time>2014-12-28T10:24:31Z</time>
      </trkpt>
      <trkpt lat="44.58546" lon="0.96614">
        <ele>169.81</ele>
        <time>2014-12-28T10:24:39Z</time>
      </trkpt>
      <trkpt lat="44.58517" lon="0.96637">
        <ele>165.96</ele>
        <time>2014-12-28T10:24:44Z</time>
      </trkpt>
      <trkpt lat="44.58503" lon="0.96651">
        <ele>163.08</ele>
        <time>2014-12-28T10:24:47Z</time>
      </trkpt>
      <trkpt lat="44.58482" lon="0.96669">
        <ele>162.12</ele>
        <time>2014-12-28T10:24:52Z</time>
      </trkpt>
      <trkpt lat="44.58456" lon="0.96693">
        <ele>163.56</ele>
        <time>2014-12-28T10:24:59Z</time>
      </trkpt>
      <trkpt lat="44.58408" lon="0.96716">
        <ele>167.89</ele>
        <time>2014-12-28T10:25:12Z</time>
      </trkpt>
      <trkpt lat="44.58371" lon="0.96735">
        <ele>171.73</ele>
        <time>2014-12-28T10:25:23Z</time>
      </trkpt>
      <trkpt lat="44.58326" lon="0.96755">
        <ele>175.58</ele>
        <time>2014-12-28T10:25:37Z</time>
      </trkpt>
      <trkpt lat="44.58288" lon="0.96781">
        <ele>173.17</ele>
        <time>2014-12-28T10:25:48Z</time>
      </trkpt>
      <trkpt lat="44.58261" lon="0.9679">
        <ele>174.14</ele>
        <time>2014-12-28T10:25:55Z</time>
      </trkpt>
      <trkpt lat="44.58252" lon="0.96793">
        <ele>176.06</ele>
        <time>2014-12-28T10:26:00Z</time>
      </trkpt>
      <trkpt lat="44.58232" lon="0.96791">
        <ele>179.9</ele>
        <time>2014-12-28T10:26:13Z</time>
      </trkpt>
      <trkpt lat="44.5823" lon="0.9679">
        <ele>181.35</ele>
        <time>2014-12-28T10:26:15Z</time>
      </trkpt>
      <trkpt lat="44.58225" lon="0.96787">
        <ele>182.31</ele>
        <time>2014-12-28T10:26:26Z</time>
      </trkpt>
      <trkpt lat="44.58226" lon="0.96785">
        <ele>182.79</ele>
        <time>2014-12-28T10:26:49Z</time>
      </trkpt>
      <trkpt lat="44.58224" lon="0.96783">
        <ele>182.79</ele>
        <time>2014-12-28T10:27:07Z</time>
      </trkpt>
      <trkpt lat="44.58226" lon="0.96789">
        <ele>182.31</ele>
        <time>2014-12-28T10:27:21Z</time>
      </trkpt>
      <trkpt lat="44.58227" lon="0.96792">
        <ele>181.83</ele>
        <time>2014-12-28T10:27:35Z</time>
      </trkpt>
      <trkpt lat="44.58228" lon="0.9679">
        <ele>180.87</ele>
        <time>2014-12-28T10:27:49Z</time>
      </trkpt>
      <trkpt lat="44.5825" lon="0.96793">
        <ele>177.98</ele>
        <time>2014-12-28T10:28:01Z</time>
      </trkpt>
      <trkpt lat="44.58266" lon="0.9679">
        <ele>177.02</ele>
        <time>2014-12-28T10:28:07Z</time>
      </trkpt>
      <trkpt lat="44.58268" lon="0.96792">
        <ele>175.58</ele>
        <time>2014-12-28T10:28:09Z</time>
      </trkpt>
      <trkpt lat="44.58246" lon="0.96825">
        <ele>168.85</ele>
        <time>2014-12-28T10:28:20Z</time>
      </trkpt>
      <trkpt lat="44.58227" lon="0.96847">
        <ele>163.08</ele>
        <time>2014-12-28T10:28:24Z</time>
      </trkpt>
      <trkpt lat="44.58208" lon="0.96871">
        <ele>156.35</ele>
        <time>2014-12-28T10:28:28Z</time>
      </trkpt>
      <trkpt lat="44.58199" lon="0.9688">
        <ele>153.47</ele>
        <time>2014-12-28T10:28:30Z</time>
      </trkpt>
      <trkpt lat="44.5818" lon="0.96893">
        <ele>149.14</ele>
        <time>2014-12-28T10:28:34Z</time>
      </trkpt>
      <trkpt lat="44.58167" lon="0.969">
        <ele>145.3</ele>
        <time>2014-12-28T10:28:37Z</time>
      </trkpt>
      <trkpt lat="44.58149" lon="0.96914">
        <ele>140.97</ele>
        <time>2014-12-28T10:28:42Z</time>
      </trkpt>
      <trkpt lat="44.58141" lon="0.96921">
        <ele>139.05</ele>
        <time>2014-12-28T10:28:44Z</time>
      </trkpt>
      <trkpt lat="44.58127" lon="0.96934">
        <ele>136.16</ele>
        <time>2014-12-28T10:28:48Z</time>
      </trkpt>
      <trkpt lat="44.58118" lon="0.96937">
        <ele>134.72</ele>
        <time>2014-12-28T10:28:50Z</time>
      </trkpt>
      <trkpt lat="44.58106" lon="0.96946">
        <ele>131.36</ele>
        <time>2014-12-28T10:28:59Z</time>
      </trkpt>
      <trkpt lat="44.58086" lon="0.96948">
        <ele>128.95</ele>
        <time>2014-12-28T10:29:09Z</time>
      </trkpt>
      <trkpt lat="44.58082" lon="0.96948">
        <ele>127.99</ele>
        <time>2014-12-28T10:29:10Z</time>
      </trkpt>
      <trkpt lat="44.58074" lon="0.96945">
        <ele>126.07</ele>
        <time>2014-12-28T10:29:12Z</time>
      </trkpt>
      <trkpt lat="44.58053" lon="0.96936">
        <ele>120.78</ele>
        <time>2014-12-28T10:29:18Z</time>
      </trkpt>
      <trkpt lat="44.58044" lon="0.96937">
        <ele>117.42</ele>
        <time>2014-12-28T10:29:28Z</time>
      </trkpt>
      <trkpt lat="44.58046" lon="0.96935">
        <ele>117.9</ele>
        <time>2014-12-28T10:29:51Z</time>
      </trkpt>
      <trkpt lat="44.58046" lon="0.96934">
        <ele>118.86</ele>
        <time>2014-12-28T10:30:13Z</time>
      </trkpt>
      <trkpt lat="44.58046" lon="0.96935">
        <ele>119.82</ele>
        <time>2014-12-28T10:30:41Z</time>
      </trkpt>
      <trkpt lat="44.58046" lon="0.96938">
        <ele>119.34</ele>
        <time>2014-12-28T10:30:59Z</time>
      </trkpt>
      <trkpt lat="44.58046" lon="0.9694">
        <ele>120.3</ele>
        <time>2014-12-28T10:31:14Z</time>
      </trkpt>
      <trkpt lat="44.58041" lon="0.96963">
        <ele>114.53</ele>
        <time>2014-12-28T10:31:23Z</time>
      </trkpt>
      <trkpt lat="44.58031" lon="0.96976">
        <ele>112.61</ele>
        <time>2014-12-28T10:31:27Z</time>
      </trkpt>
      <trkpt lat="44.58016" lon="0.96969">
        <ele>112.13</ele>
        <time>2014-12-28T10:31:32Z</time>
      </trkpt>
      <trkpt lat="44.57992" lon="0.96958">
        <ele>111.17</ele>
        <time>2014-12-28T10:31:38Z</time>
      </trkpt>
      <trkpt lat="44.57963" lon="0.96947">
        <ele>110.69</ele>
        <time>2014-12-28T10:31:46Z</time>
      </trkpt>
      <trkpt lat="44.57937" lon="0.96962">
        <ele>108.77</ele>
        <time>2014-12-28T10:31:52Z</time>
      </trkpt>
      <trkpt lat="44.57894" lon="0.96951">
        <ele>108.77</ele>
        <time>2014-12-28T10:32:01Z</time>
      </trkpt>
      <trkpt lat="44.5787" lon="0.96946">
        <ele>107.81</ele>
        <time>2014-12-28T10:32:05Z</time>
      </trkpt>
      <trkpt lat="44.57852" lon="0.96942">
        <ele>107.32</ele>
        <time>2014-12-28T10:32:08Z</time>
      </trkpt>
      <trkpt lat="44.57763" lon="0.96913">
        <ele>106.36</ele>
        <time>2014-12-28T10:32:23Z</time>
      </trkpt>
      <trkpt lat="44.57758" lon="0.96911">
        <ele>106.36</ele>
        <time>2014-12-28T10:32:24Z</time>
      </trkpt>
      <trkpt lat="44.57727" lon="0.96905">
        <ele>106.36</ele>
        <time>2014-12-28T10:32:33Z</time>
      </trkpt>
      <trkpt lat="44.57726" lon="0.96901">
        <ele>107.81</ele>
        <time>2014-12-28T10:32:49Z</time>
      </trkpt>
      <trkpt lat="44.57726" lon="0.96901">
        <ele>108.29</ele>
        <time>2014-12-28T10:32:58Z</time>
      </trkpt>
      <trkpt lat="44.57722" lon="0.96908">
        <ele>108.77</ele>
        <time>2014-12-28T10:33:02Z</time>
      </trkpt>
      <trkpt lat="44.5772" lon="0.96964">
        <ele>108.77</ele>
        <time>2014-12-28T10:33:14Z</time>
      </trkpt>
      <trkpt lat="44.57722" lon="0.97015">
        <ele>108.77</ele>
        <time>2014-12-28T10:33:23Z</time>
      </trkpt>
      <trkpt lat="44.57721" lon="0.97027">
        <ele>108.77</ele>
        <time>2014-12-28T10:33:25Z</time>
      </trkpt>
      <trkpt lat="44.57703" lon="0.9711">
        <ele>110.69</ele>
        <time>2014-12-28T10:33:40Z</time>
      </trkpt>
      <trkpt lat="44.57699" lon="0.97124">
        <ele>111.17</ele>
        <time>2014-12-28T10:33:43Z</time>
      </trkpt>
      <trkpt lat="44.57685" lon="0.97126">
        <ele>111.65</ele>
        <time>2014-12-28T10:33:47Z</time>
      </trkpt>
      <trkpt lat="44.57626" lon="0.97114">
        <ele>111.65</ele>
        <time>2014-12-28T10:34:03Z</time>
      </trkpt>
      <trkpt lat="44.57577" lon="0.97105">
        <ele>109.25</ele>
        <time>2014-12-28T10:34:16Z</time>
      </trkpt>
      <trkpt lat="44.57551" lon="0.97114">
        <ele>107.32</ele>
        <time>2014-12-28T10:34:23Z</time>
      </trkpt>
      <trkpt lat="44.57521" lon="0.97147">
        <ele>106.36</ele>
        <time>2014-12-28T10:34:31Z</time>
      </trkpt>
      <trkpt lat="44.57508" lon="0.97169">
        <ele>105.88</ele>
        <time>2014-12-28T10:34:35Z</time>
      </trkpt>
      <trkpt lat="44.57478" lon="0.97229">
        <ele>106.36</ele>
        <time>2014-12-28T10:34:49Z</time>
      </trkpt>
      <trkpt lat="44.57475" lon="0.97255">
        <ele>106.84</ele>
        <time>2014-12-28T10:34:54Z</time>
      </trkpt>
      <trkpt lat="44.57486" lon="0.97266">
        <ele>106.36</ele>
        <time>2014-12-28T10:34:58Z</time>
      </trkpt>
      <trkpt lat="44.57497" lon="0.9727">
        <ele>106.36</ele>
        <time>2014-12-28T10:35:01Z</time>
      </trkpt>
      <trkpt lat="44.5755" lon="0.97265">
        <ele>106.36</ele>
        <time>2014-12-28T10:35:16Z</time>
      </trkpt>
      <trkpt lat="44.57564" lon="0.9725">
        <ele>105.88</ele>
        <time>2014-12-28T10:35:23Z</time>
      </trkpt>
      <trkpt lat="44.57566" lon="0.97249">
        <ele>106.84</ele>
        <time>2014-12-28T10:35:38Z</time>
      </trkpt>
    </trkseg>
  </trk>
</gpx>